Moscow MillsWeather Station
Hourly Leaf Wetness Data

Source: University of Missouri

To the bottom of the page

Year Month Day Hour Leaf Wetness Total
Precipitation
Avg. Temp Avg. Rel.
Humidity
Wind
Speed
CST mV in mm F C % mph
2018 07 25 1:00 272.2 0.0 0.00 68.9 20.5 75 0.1
2018 07 25 2:00 272.5 0.0 0.00 67.0 19.4 79.41 0.0
2018 07 25 3:00 Wet 300.3 0.0 0.00 64.6 18.1 84.8 0.9
2018 07 25 4:00 Wet 311.2 0.0 0.00 63.5 17.5 86.4 2.0
2018 07 25 5:00 Wet 332.4 0.0 0.00 61.8 16.5 90.3 1.1
2018 07 25 6:00 Wet 343.6 0.0 0.00 61.1 16.2 92.7 0.0
2018 07 25 7:00 279.3 0.0 0.00 65.4 18.6 83.1 1.8
2018 07 25 8:00 267.7 0.0 0.00 72.4 22.4 66.02 3.2
2018 07 25 9:00 266.4 0.0 0.00 77.0 25.0 56.26 3.1
2018 07 25 10:00 265.1 0.0 0.00 81.1 27.3 44.57 4.0
2018 07 25 11:00 264.6 0.0 0.00 83.3 28.5 36.66 5.0
2018 07 25 12:00 264.3 0.0 0.00 84.3 29.1 30.44 5.2
2018 07 25 13:00 263.4 0.0 0.00 85.7 29.8 28.62 4.6
2018 07 25 14:00 263.5 0.0 0.00 87.4 30.8 29 3.8
2018 07 25 15:00 264.4 0.0 0.00 88.1 31.1 28.98 3.5
2018 07 25 16:00 264.5 0.0 0.00 85.8 29.9 32.98 4.9
2018 07 25 17:00 264.7 0.0 0.00 84.5 29.1 35.6 5.2
2018 07 25 18:00 264.7 0.0 0.00 84.1 28.9 38.95 3.8
2018 07 25 19:00 265.1 0.0 0.00 82.1 27.8 43.45 2.2
2018 07 25 20:00 266.5 0.0 0.00 78.3 25.7 51.59 0.2
2018 07 25 21:00 267.6 0.0 0.00 74.5 23.6 61.58 0.0
2018 07 25 22:00 268.5 0.0 0.00 72.4 22.5 66.94 0.0
2018 07 25 23:00 268.9 0.0 0.00 71.3 21.8 70.25 0.0
2018 07 25 24:00 269.5 0.0 0.00 70.0 21.1 75.24 0.0
2018 07 26 1:00 269.9 0.0 0.00 70.0 21.1 75.23 0.1
2018 07 26 2:00 270.2 0.0 0.00 70.3 21.3 74.63 0.0
2018 07 26 3:00 271.2 0.0 0.00 68.3 20.2 81.6 0.0
2018 07 26 4:00 270.7 0.0 0.00 66.6 19.2 85.9 0.0
2018 07 26 5:00 272.0 0.0 0.00 65.8 18.8 86.7 1.4
2018 07 26 6:00 272.0 0.0 0.00 66.4 19.1 86.8 1.6
2018 07 26 7:00 270.0 0.0 0.00 68.3 20.1 78.89 1.2
2018 07 26 8:00 267.3 0.0 0.00 74.7 23.7 59.02 6.1
2018 07 26 9:00 266.6 0.0 0.00 79.0 26.1 53.85 7.1
2018 07 26 10:00 266.1 0.0 0.00 81.1 27.3 51.48 8.1
2018 07 26 11:00 265.8 0.0 0.00 82.9 28.3 49.69 7.4
2018 07 26 12:00 266.5 0.0 0.00 82.2 27.9 53.68 7.1
2018 07 26 13:00 266.7 0.0 0.00 80.8 27.1 52.85 7.0
2018 07 26 14:00 266.2 0.0 0.00 80.7 27.1 46.24 7.8
2018 07 26 15:00 266.1 0.0 0.00 79.1 26.1 44.26 7.7
2018 07 26 16:00 266.1 0.0 0.00 78.4 25.8 44.71 5.0
2018 07 26 17:00 266.1 0.0 0.00 78.1 25.6 42.39 3.8
2018 07 26 18:00 266.0 0.0 0.00 77.1 25.1 43.27 1.9
2018 07 26 19:00 266.6 0.0 0.00 74.9 23.8 51.41 0.2
2018 07 26 20:00 267.6 0.0 0.00 72.2 22.3 58.58 0.3
2018 07 26 21:00 269.6 0.0 0.00 69.0 20.6 70.27 0.4
2018 07 26 22:00 271.8 0.0 0.00 64.7 18.2 83.3 0.2
2018 07 26 23:00 Wet 308.9 0.0 0.00 63.6 17.6 90.2 0.2
2018 07 26 24:00 Wet 356.2 0.0 0.00 62.0 16.7 93.8 0.2
2018 07 27 1:00 Wet 380.1 0.0 0.00 61.3 16.3 96.2 0.1
2018 07 27 2:00 Wet 397.4 0.0 0.00 61.1 16.2 96.9 0.3
2018 07 27 3:00 Wet 393.2 0.0 0.00 60.4 15.8 97.4 0.5
2018 07 27 4:00 Wet 391.9 0.0 0.00 61.0 16.1 97.8 1.7
2018 07 27 5:00 Wet 387.8 0.0 0.00 60.4 15.8 97.6 0.2
2018 07 27 6:00 Wet 365.1 0.0 0.00 60.1 15.6 97.7 1.5
2018 07 27 7:00 Wet 294.2 0.0 0.00 62.1 16.7 92.7 1.5
2018 07 27 8:00 267.3 0.0 0.00 68.7 20.4 65.19 1.8
2018 07 27 9:00 266.2 0.0 0.00 71.9 22.1 55.13 3.5
2018 07 27 10:00 265.4 0.0 0.00 75.5 24.2 48.21 4.0
2018 07 27 11:00 265.1 0.0 0.00 77.0 25.0 45.06 6.0
2018 07 27 12:00 264.9 0.0 0.00 78.6 25.9 40.5 6.0
2018 07 27 13:00 264.7 0.0 0.00 80.9 27.1 35.46 7.4
2018 07 27 14:00 264.7 0.0 0.00 82.2 27.9 33.11 7.4
2018 07 27 15:00 264.7 0.0 0.00 82.2 27.9 32.72 7.1
2018 07 27 16:00 264.7 0.0 0.00 82.3 28.0 31.48 8.0
2018 07 27 17:00 264.7 0.0 0.00 83.1 28.4 30.73 6.8
2018 07 27 18:00 264.7 0.0 0.00 83.0 28.3 31.27 5.3
2018 07 27 19:00 265.2 0.0 0.00 79.5 26.4 42.16 4.0
2018 07 27 20:00 266.3 0.0 0.00 75.6 24.2 50.19 2.6
2018 07 27 21:00 267.1 0.0 0.00 72.9 22.7 56.42 1.8
2018 07 27 22:00 269.5 0.0 0.00 67.4 19.7 69.51 0.0
2018 07 27 23:00 271.5 0.0 0.00 64.3 17.9 78.3 0.1
2018 07 27 24:00 273.2 0.0 0.00 62.6 17.0 82.8 0.4
2018 07 28 1:00 272.8 0.0 0.00 62.2 16.8 82.8 1.1
2018 07 28 2:00 275.7 0.0 0.00 60.6 15.9 87.5 1.0
2018 07 28 3:00 Wet 294.7 0.0 0.00 58.9 15.0 91.3 0.0
2018 07 28 4:00 Wet 338.9 0.0 0.00 58.4 14.7 92.9 0.4
2018 07 28 5:00 Wet 371.4 0.0 0.00 57.5 14.2 94.7 0.0
2018 07 28 6:00 Wet 382.8 0.0 0.00 57.5 14.2 94.8 0.1
2018 07 28 7:00 Wet 309.3 0.0 0.00 60.9 16.0 89.1 0.1
2018 07 28 8:00 268.9 0.0 0.00 66.8 19.4 76.62 2.1
2018 07 28 9:00 267.2 0.0 0.00 71.4 21.9 65.86 2.3
2018 07 28 10:00 267.0 0.0 0.00 74.0 23.4 58.12 4.7
2018 07 28 11:00 266.6 0.0 0.00 75.6 24.2 54.97 4.3
2018 07 28 12:00 267.2 0.0 0.00 75.4 24.1 57.15 3.9
2018 07 28 13:00 268.0 0.0 0.00 75.2 24.0 59.29 4.3
2018 07 28 14:00 271.3 0.0 0.00 74.8 23.8 61 4.3
2018 07 28 15:00 267.1 0.0 0.00 76.0 24.4 57.58 4.1
2018 07 28 16:00 267.6 0.0 0.00 76.2 24.5 57.54 2.9
2018 07 28 17:00 Wet 305.8 0.0 0.00 74.7 23.7 66.12 3.9
2018 07 28 18:00 270.1 0.0 0.00 73.0 22.8 71.96 3.3
2018 07 28 19:00 268.9 0.0 0.00 73.0 22.8 68.54 3.2
2018 07 28 20:00 269.7 0.0 0.00 71.7 22.1 71.02 1.1
2018 07 28 21:00 271.6 0.0 0.00 69.2 20.7 77.72 0.8
2018 07 28 22:00 280.9 0.0 0.00 65.7 18.7 88.7 0.3
2018 07 28 23:00 273.3 0.0 0.00 66.0 18.9 87.5 0.1
2018 07 28 24:00 Wet 287.0 0.0 0.00 64.0 17.8 92.7 0.0
2018 07 29 1:00 Wet 309.2 0.0 0.00 63.9 17.7 93.6 0.0
2018 07 29 2:00 Wet 307.2 0.0 0.00 64.1 17.8 93.2 0.2
2018 07 29 3:00 Wet 290.1 0.0 0.00 64.7 18.2 92.6 1.0
2018 07 29 4:00 276.2 0.0 0.00 65.0 18.3 91.7 1.4
2018 07 29 5:00 277.4 0.0 0.00 64.4 18.0 92.6 0.2
2018 07 29 6:00 273.3 0.0 0.00 65.5 18.6 89.6 2.5
2018 07 29 7:00 272.4 0.0 0.00 66.3 19.1 87.3 2.4
2018 07 29 8:00 272.2 0.0 0.00 67.0 19.4 86.1 2.6
2018 07 29 9:00 272.4 0.0 0.00 67.9 19.9 83.3 4.4
2018 07 29 10:00 Wet 364.3 0.0 0.00 66.0 18.9 87.4 5.1
2018 07 29 11:00 Wet 285.4 0.0 0.00 65.7 18.7 88.7 7.3
2018 07 29 12:00 273.9 0.0 0.00 65.2 18.5 87.3 8.5
2018 07 29 13:00 Wet 456.0 0.1 1.52 64.7 18.1 91.3 7.1
2018 07 29 14:00 Wet 533.0 0.1 2.54 64.4 18.0 94.8 4.7
2018 07 29 15:00 Wet 446.0 0.0 1.02 64.6 18.1 95.3 5.1
2018 07 29 16:00 Wet 303.5 0.0 0.00 65.4 18.6 93.4 5.4
2018 07 29 17:00 273.8 0.0 0.00 66.0 18.9 92.6 3.6
2018 07 29 18:00 Wet 315.8 0.0 0.00 66.0 18.9 93.3 4.2
2018 07 29 19:00 Wet 420.0 0.0 0.25 65.6 18.6 95 3.3
2018 07 29 20:00 Wet 296.6 0.0 0.00 65.4 18.6 95.1 2.9
2018 07 29 21:00 279.9 0.0 0.00 65.0 18.3 94.9 3.6
2018 07 29 22:00 275.1 0.0 0.00 64.4 18.0 95.1 3.6
2018 07 29 23:00 275.0 0.0 0.00 63.9 17.7 95.7 2.7
2018 07 29 24:00 275.8 0.0 0.00 63.9 17.7 96.2 2.4
2018 07 30 1:00 275.1 0.0 0.00 64.0 17.8 95.9 2.5
2018 07 30 2:00 275.2 0.0 0.00 64.0 17.8 95.8 2.3
2018 07 30 3:00 Wet 290.5 0.0 0.00 64.1 17.8 96 2.7
2018 07 30 4:00 Wet 355.3 0.0 0.00 64.0 17.8 96.7 2.1
2018 07 30 5:00 Wet 374.0 0.0 0.00 63.9 17.7 97.3 3.2
2018 07 30 6:00 Wet 344.3 0.0 0.00 63.7 17.6 97.3 3.8
2018 07 30 7:00 Wet 326.8 0.0 0.00 64.3 17.9 96.1 3.5
2018 07 30 8:00 Wet 294.4 0.0 0.00 64.7 18.2 93.2 3.9
2018 07 30 9:00 273.4 0.0 0.00 65.4 18.5 89.7 3.6
2018 07 30 10:00 272.2 0.0 0.00 66.5 19.2 85.4 4.6
2018 07 30 11:00 271.1 0.0 0.00 68.7 20.4 79.61 4.5
2018 07 30 12:00 270.7 0.0 0.00 69.9 21.1 76.63 4.8
2018 07 30 13:00 270.2 0.0 0.00 70.8 21.6 74.64 3.3
2018 07 30 14:00 269.3 0.0 0.00 72.6 22.5 70.15 4.3
2018 07 30 15:00 269.4 0.0 0.00 74.6 23.7 66.2 5.7
2018 07 30 16:00 268.8 0.0 0.00 77.3 25.1 59.4 6.5
2018 07 30 17:00 268.8 0.0 0.00 76.2 24.6 60.8 5.4
2018 07 30 18:00 268.8 0.0 0.00 75.7 24.3 61.22 5.3
2018 07 30 19:00 269.4 0.0 0.00 74.1 23.4 66.17 4.6
2018 07 30 20:00 270.0 0.0 0.00 71.7 22.0 70.03 3.6
2018 07 30 21:00 270.9 0.0 0.00 69.3 20.7 78.37 2.5
2018 07 30 22:00 271.9 0.0 0.00 67.8 19.9 84 2.3
2018 07 30 23:00 274.6 0.0 0.00 66.2 19.0 88.9 1.5
2018 07 30 24:00 273.9 0.0 0.00 65.5 18.6 91.2 3.1
2018 07 31 1:00 281.0 0.0 0.00 64.8 18.2 92.9 0.9
2018 07 31 2:00 Wet 310.2 0.0 0.00 63.8 17.7 95.2 1.5
2018 07 31 3:00 Wet 309.6 0.0 0.00 64.1 17.8 94.5 1.5
2018 07 31 4:00 Wet 338.8 0.0 0.00 63.0 17.3 95.3 1.2
2018 07 31 5:00 Wet 348.1 0.0 0.00 63.1 17.3 96.1 2.4
2018 07 31 6:00 Wet 338.0 0.0 0.00 63.3 17.4 96.2 0.7
2018 07 31 7:00 Wet 298.4 0.0 0.00 64.9 18.3 93 2.7
2018 07 31 8:00 276.0 0.0 0.00 66.0 18.9 90.7 3.5
2018 07 31 9:00 272.9 0.0 0.00 67.8 19.9 86.7 4.4
2018 07 31 10:00 270.7 0.0 0.00 71.1 21.7 77.1 5.3
2018 07 31 11:00 269.4 0.0 0.00 74.0 23.3 66.42 4.8
2018 07 31 12:00 268.3 0.0 0.00 75.8 24.3 57.63 5.4
2018 07 31 13:00 Wet 303.5 0.3 6.60 75.7 24.3 57.15 6.3
2018 07 31 14:00 Wet 368.8 0.2 3.81 67.9 19.9 80.7 2.8
2018 07 31 15:00 274.1 0.0 0.00 70.4 21.3 75.6 2.9
2018 07 31 16:00 269.4 0.0 0.00 74.6 23.7 65.51 4.6
2018 07 31 17:00 268.8 0.0 0.00 75.7 24.3 60.57 6.9
2018 07 31 18:00 269.0 0.0 0.00 73.5 23.1 60.89 5.0
2018 07 31 19:00 269.1 0.0 0.00 72.5 22.5 60.92 2.4
2018 07 31 20:00 270.9 0.0 0.00 69.0 20.5 72.44 0.3
2018 07 31 21:00 282.3 0.0 0.00 65.0 18.4 85.8 0.1
2018 07 31 22:00 Wet 327.8 0.0 0.00 62.9 17.2 92.1 0.6
2018 07 31 23:00 Wet 373.3 0.0 0.00 61.4 16.4 94.2 0.6
2018 07 31 24:00 Wet 400.5 0.0 0.00 60.9 16.1 93.6 2.1
2018 08 01 1:00 Wet 428.0 0.0 0.00 59.7 15.4 95 0.1
2018 08 01 2:00 Wet 435.2 0.0 0.00 58.7 14.9 96.8 0.2
2018 08 01 3:00 Wet 440.4 0.0 0.00 57.4 14.1 97 0.0
2018 08 01 4:00 Wet 423.0 0.0 0.00 57.3 14.0 97.7 0.8
2018 08 01 5:00 Wet 414.3 0.0 0.00 56.6 13.7 97.6 0.2
2018 08 01 6:00 Wet 396.9 0.0 0.00 55.4 13.0 97.8 0.0
2018 08 01 7:00 Wet 305.3 0.0 0.00 58.6 14.8 98.4 0.0
2018 08 01 8:00 268.8 0.0 0.00 64.3 18.0 90.5 0.3
2018 08 01 9:00 267.4 0.0 0.00 71.9 22.1 71.65 0.6
2018 08 01 10:00 266.5 0.0 0.00 77.3 25.1 56.68 2.2
2018 08 01 11:00 265.4 0.0 0.00 79.9 26.6 46.35 3.1
2018 08 01 12:00 265.2 0.0 0.00 81.7 27.6 41.25 3.7
2018 08 01 13:00 265.0 0.0 0.00 82.4 28.0 39.82 2.8
2018 08 01 14:00 265.4 0.0 0.00 83.4 28.5 38.79 2.9
2018 08 01 15:00 265.4 0.0 0.00 83.0 28.3 38.81 2.8
2018 08 01 16:00 265.5 0.0 0.00 84.6 29.2 35.74 2.0
2018 08 01 17:00 265.3 0.0 0.00 84.8 29.3 37.51 4.1
2018 08 01 18:00 265.4 0.0 0.00 83.0 28.3 42.09 4.2
2018 08 01 19:00 266.1 0.0 0.00 81.2 27.3 45.96 2.2
2018 08 01 20:00 267.2 0.0 0.00 77.7 25.4 52.34 0.8
2018 08 01 21:00 268.2 0.0 0.00 74.1 23.4 60.64 1.3
2018 08 01 22:00 268.9 0.0 0.00 72.3 22.4 65.24 1.8
2018 08 01 23:00 269.5 0.0 0.00 70.8 21.6 68.43 0.3
2018 08 01 24:00 270.3 0.0 0.00 68.6 20.4 73.76 1.2
2018 08 02 1:00 271.1 0.0 0.00 66.8 19.3 77.8 1.8
2018 08 02 2:00 273.0 0.0 0.00 65.0 18.3 82.2 1.2
2018 08 02 3:00 276.7 0.0 0.00 63.9 17.7 84.6 0.0
2018 08 02 4:00 Wet 294.2 0.0 0.00 63.0 17.2 86.6 0.3
2018 08 02 5:00 277.9 0.0 0.00 63.9 17.7 83.6 0.2
2018 08 02 6:00 279.5 0.0 0.00 62.8 17.1 87.8 0.0
2018 08 02 7:00 269.9 0.0 0.00 65.5 18.6 85.7 0.2
2018 08 02 8:00 267.8 0.0 0.00 72.3 22.4 69.82 3.4
2018 08 02 9:00 266.5 0.0 0.00 78.2 25.7 54.05 4.5
2018 08 02 10:00 265.5 0.0 0.00 83.1 28.4 42.34 7.6
2018 08 02 11:00 264.7 0.0 0.00 85.9 29.9 36.91 8.4
2018 08 02 12:00 264.8 0.0 0.00 86.5 30.3 37.86 10.0
2018 08 02 13:00 264.7 0.0 0.00 87.9 31.0 36.88 8.9
2018 08 02 14:00 264.7 0.0 0.00 89.2 31.8 34.97 8.3
2018 08 02 15:00 283.6 0.0 0.25 87.3 30.7 40.29 9.5
2018 08 02 16:00 265.5 0.0 0.00 86.9 30.5 39.83 8.4
2018 08 02 17:00 265.3 0.0 0.00 86.8 30.4 39.29 4.4
2018 08 02 18:00 266.4 0.0 0.00 83.2 28.4 54.56 3.8
2018 08 02 19:00 266.8 0.0 0.00 80.9 27.1 55.44 2.0
2018 08 02 20:00 268.4 0.0 0.00 78.2 25.7 61.44 0.1
2018 08 02 21:00 270.2 0.0 0.00 74.1 23.4 74.25 0.2
2018 08 02 22:00 273.6 0.0 0.00 71.5 22.0 82.2 0.5
2018 08 02 23:00 275.8 0.0 0.00 69.6 20.9 87.5 0.8
2018 08 02 24:00 271.9 0.0 0.00 70.6 21.4 82.3 2.1
2018 08 03 1:00 280.3 0.0 0.00 69.0 20.6 88.2 1.4
2018 08 03 2:00 Wet 347.3 0.0 0.25 68.5 20.3 89.7 0.2
2018 08 03 3:00 283.6 0.0 0.00 69.6 20.9 85.5 3.9
2018 08 03 4:00 272.6 0.0 0.00 69.0 20.6 82.1 2.9
2018 08 03 5:00 272.7 0.0 0.00 68.3 20.2 81.6 1.9
2018 08 03 6:00 272.3 0.0 0.00 67.8 19.9 81.7 0.9
2018 08 03 7:00 269.7 0.0 0.00 69.2 20.7 80.4 0.8
2018 08 03 8:00 267.5 0.0 0.00 75.5 24.1 67.29 0.2
2018 08 03 9:00 265.6 0.0 0.00 81.3 27.4 52.27 1.2
2018 08 03 10:00 265.0 0.0 0.00 86.3 30.2 39.77 4.7
2018 08 03 11:00 264.5 0.0 0.00 89.1 31.7 33.19 5.9
2018 08 03 12:00 264.0 0.0 0.00 91.2 32.9 29.66 7.5
2018 08 03 13:00 263.5 0.0 0.00 92.4 33.6 27.9 6.4
2018 08 03 14:00 263.5 0.0 0.00 93.1 34.0 27.85 3.9
2018 08 03 15:00 263.9 0.0 0.00 93.1 33.9 28.35 4.4
2018 08 03 16:00 263.5 0.0 0.00 93.7 34.3 26.47 5.4
2018 08 03 17:00 263.8 0.0 0.00 92.5 33.6 29.38 5.7
2018 08 03 18:00 263.9 0.0 0.00 91.6 33.1 29.66 5.1
2018 08 03 19:00 264.6 0.0 0.00 89.0 31.6 35.71 2.5
2018 08 03 20:00 265.6 0.0 0.00 84.8 29.3 44.03 1.6
2018 08 03 21:00 266.7 0.0 0.00 80.9 27.2 53.59 1.7
2018 08 03 22:00 267.8 0.0 0.00 78.8 26.0 61.12 1.4
2018 08 03 23:00 268.1 0.0 0.00 77.5 25.3 62.41 3.5
2018 08 03 24:00 268.2 0.0 0.00 76.2 24.5 64.81 2.3
2018 08 04 1:00 268.8 0.0 0.00 75.0 23.9 66.25 2.4
2018 08 04 2:00 268.8 0.0 0.00 74.8 23.8 65.09 2.6
2018 08 04 3:00 268.8 0.0 0.00 74.4 23.5 64.84 2.8
2018 08 04 4:00 269.1 0.0 0.00 72.5 22.5 69.19 0.1
2018 08 04 5:00 269.5 0.0 0.00 70.7 21.5 73.26 1.1
2018 08 04 6:00 269.7 0.0 0.00 69.6 20.9 75.63 2.5
2018 08 04 7:00 268.6 0.0 0.00 70.7 21.5 76.09 3.0
2018 08 04 8:00 266.9 0.0 0.00 76.3 24.6 61.55 4.6
2018 08 04 9:00 265.8 0.0 0.00 81.2 27.3 51.39 6.2
2018 08 04 10:00 265.3 0.0 0.00 83.8 28.8 46.23 8.0
2018 08 04 11:00 264.7 0.0 0.00 86.1 30.1 39.93 9.5
2018 08 04 12:00 264.6 0.0 0.00 88.2 31.2 36.83 7.3
2018 08 04 13:00 264.3 0.0 0.00 89.9 32.2 32.63 8.4
2018 08 04 14:00 263.7 0.0 0.00 91.6 33.1 27.26 10.1
2018 08 04 15:00 264.4 0.0 0.00 91.9 33.3 28.93 10.2
2018 08 04 16:00 264.6 0.0 0.00 92.2 33.4 29.63 10.4
2018 08 04 17:00 264.6 0.0 0.00 91.6 33.1 31.54 9.7
2018 08 04 18:00 264.7 0.0 0.00 90.0 32.2 34.83 7.9
2018 08 04 19:00 264.7 0.0 0.00 88.6 31.4 37.14 5.1
2018 08 04 20:00 265.7 0.0 0.00 85.0 29.5 46.8 4.8
2018 08 04 21:00 266.5 0.0 0.00 82.3 27.9 54.94 3.3
2018 08 04 22:00 267.3 0.0 0.00 80.4 26.9 59.68 4.6
2018 08 04 23:00 267.4 0.0 0.00 79.3 26.3 59.22 5.2
2018 08 04 24:00 267.4 0.0 0.00 78.3 25.7 58.83 5.2
2018 08 05 1:00 267.4 0.0 0.00 77.9 25.5 60.29 6.0
2018 08 05 2:00 267.9 0.0 0.00 77.0 25.0 63.29 4.2
2018 08 05 3:00 268.3 0.0 0.00 75.5 24.2 68.08 3.0
2018 08 05 4:00 268.8 0.0 0.00 74.7 23.7 71.06 2.8
2018 08 05 5:00 269.4 0.0 0.00 73.8 23.2 73.91 2.8
2018 08 05 6:00 269.5 0.0 0.00 73.3 22.9 76.02 1.0
2018 08 05 7:00 267.8 0.0 0.00 75.6 24.2 72.31 1.8
2018 08 05 8:00 266.8 0.0 0.00 79.6 26.5 64.69 3.7
2018 08 05 9:00 265.7 0.0 0.00 83.5 28.6 57.24 4.3
2018 08 05 10:00 265.1 0.0 0.00 87.1 30.6 50.86 4.2
2018 08 05 11:00 264.7 0.0 0.00 89.4 31.9 44.9 5.3
2018 08 05 12:00 264.7 0.0 0.00 91.6 33.1 39.29 6.7
2018 08 05 13:00 264.6 0.0 0.00 93.1 33.9 35.86 8.3
2018 08 05 14:00 264.4 0.0 0.00 94.0 34.4 32.81 7.7
2018 08 05 15:00 264.4 0.0 0.00 94.8 34.9 29.07 8.4
2018 08 05 16:00 264.6 0.0 0.00 94.3 34.6 31.87 7.2
2018 08 05 17:00 264.7 0.0 0.00 94.1 34.5 32.8 7.3
2018 08 05 18:00 264.7 0.0 0.00 93.2 34.0 32.89 6.2
2018 08 05 19:00 264.7 0.0 0.00 90.7 32.6 37.03 3.7
2018 08 05 20:00 265.6 0.0 0.00 87.1 30.6 43.58 1.5
2018 08 05 21:00 266.5 0.0 0.00 84.3 29.1 55.34 4.3
2018 08 05 22:00 266.8 0.0 0.00 82.6 28.1 58.89 6.5
2018 08 05 23:00 267.4 0.0 0.00 81.0 27.2 60.74 5.9
2018 08 05 24:00 267.4 0.0 0.00 79.4 26.3 63.27 5.6
2018 08 06 1:00 268.0 0.0 0.00 78.4 25.8 66.01 5.7
2018 08 06 2:00 268.1 0.0 0.00 77.8 25.5 68.12 5.9
2018 08 06 3:00 268.6 0.0 0.00 77.2 25.1 70.89 3.7
2018 08 06 4:00 269.4 0.0 0.00 76.0 24.5 74.55 1.5
2018 08 06 5:00 269.8 0.0 0.00 75.3 24.1 77.21 1.6
2018 08 06 6:00 270.1 0.0 0.00 74.9 23.8 78.69 1.1
2018 08 06 7:00 269.6 0.0 0.00 76.1 24.5 76.53 2.3
2018 08 06 8:00 268.3 0.0 0.00 78.9 26.1 69.23 4.1
2018 08 06 9:00 266.5 0.0 0.00 84.3 29.0 55.62 8.0
2018 08 06 10:00 265.5 0.0 0.00 88.4 31.3 46.19 9.2
2018 08 06 11:00 264.8 0.0 0.00 91.8 33.2 39.63 9.7
2018 08 06 12:00 264.7 0.0 0.00 93.6 34.2 36.56 8.2
2018 08 06 13:00 264.5 0.0 0.00 94.7 34.9 34.15 7.8
2018 08 06 14:00 264.5 0.0 0.00 95.3 35.2 32.53 8.7
2018 08 06 15:00 264.3 0.0 0.00 96.8 36.0 28.59 8.4
2018 08 06 16:00 264.1 0.0 0.00 96.1 35.6 29.17 8.6
2018 08 06 17:00 264.3 0.0 0.00 94.8 34.9 30 6.5
2018 08 06 18:00 264.3 0.0 0.00 94.4 34.7 32.1 4.1
2018 08 06 19:00 265.4 0.0 0.00 86.4 30.2 49.85 6.7
2018 08 06 20:00 266.8 0.0 0.00 82.0 27.8 60.62 2.3
2018 08 06 21:00 267.7 0.0 0.00 80.2 26.8 64.85 0.8
2018 08 06 22:00 268.8 0.0 0.00 77.5 25.3 71.69 1.4
2018 08 06 23:00 268.2 0.0 0.00 79.1 26.1 64.08 1.8
2018 08 06 24:00 268.1 0.0 0.00 79.2 26.2 62.2 1.5
2018 08 07 1:00 268.0 0.0 0.00 75.5 24.2 66.53 16.3
2018 08 07 2:00 268.5 0.0 0.00 71.5 21.9 71.26 4.9
2018 08 07 3:00 271.9 0.0 0.00 70.8 21.5 74.42 2.9
2018 08 07 4:00 268.8 0.0 0.00 71.1 21.7 72.95 3.9
2018 08 07 5:00 268.8 0.0 0.00 71.4 21.9 73.76 3.4
2018 08 07 6:00 269.0 0.0 0.00 71.5 21.9 74.42 4.0
2018 08 07 7:00 Wet 404.2 0.1 1.52 70.6 21.5 83.9 5.6
2018 08 07 8:00 Wet 426.0 0.0 0.51 69.6 20.9 94.7 1.1
2018 08 07 9:00 Wet 488.6 0.4 10.67 69.8 21.0 94.7 4.6
2018 08 07 10:00 Wet 492.5 0.1 1.52 69.0 20.6 96.6 2.1
2018 08 07 11:00 Wet 314.7 0.0 0.00 70.1 21.2 94.7 3.6
2018 08 07 12:00 269.7 0.0 0.00 72.5 22.5 87 3.2
2018 08 07 13:00 Wet 325.4 0.0 0.00 73.7 23.2 83 1.9
2018 08 07 14:00 Wet 300.2 0.0 0.00 75.2 24.0 81.6 3.9
2018 08 07 15:00 269.2 0.0 0.00 77.3 25.1 74.41 4.9
2018 08 07 16:00 Wet 303.5 0.0 0.00 77.9 25.5 73.73 2.9
2018 08 07 17:00 269.2 0.0 0.00 78.5 25.8 73.64 1.3
2018 08 07 18:00 269.4 0.0 0.00 78.6 25.9 73.44 1.7
2018 08 07 19:00 270.4 0.0 0.00 77.5 25.3 78.36 0.9
2018 08 07 20:00 271.9 0.0 0.00 76.3 24.6 82.5 0.0
2018 08 07 21:00 277.4 0.0 0.00 74.1 23.4 90 0.1
2018 08 07 22:00 Wet 297.8 0.0 0.00 73.0 22.8 94.1 0.3
2018 08 07 23:00 Wet 328.5 0.0 0.00 72.5 22.5 93.9 0.2
2018 08 07 24:00 Wet 362.6 0.0 0.00 71.7 22.1 94.8 1.7
2018 08 08 1:00 Wet 382.2 0.0 0.00 70.9 21.6 95.2 1.0
2018 08 08 2:00 Wet 396.6 0.0 0.00 70.1 21.2 95.7 0.9
2018 08 08 3:00 Wet 394.2 0.0 0.00 69.7 20.9 96.1 0.3
2018 08 08 4:00 Wet 382.9 0.0 0.00 68.8 20.4 96.6 0.1
2018 08 08 5:00 Wet 386.5 0.0 0.00 67.3 19.6 97.3 0.1
2018 08 08 6:00 Wet 369.5 0.0 0.00 67.0 19.4 97.7 0.0
2018 08 08 7:00 Wet 298.4 0.0 0.00 69.2 20.7 97.7 0.5
2018 08 08 8:00 269.7 0.0 0.00 74.0 23.3 86 2.8
2018 08 08 9:00 268.7 0.0 0.00 77.5 25.3 73.99 5.4
2018 08 08 10:00 268.0 0.0 0.00 80.2 26.8 67.47 6.9
2018 08 08 11:00 267.5 0.0 0.00 82.3 28.0 61.48 7.2
2018 08 08 12:00 267.2 0.0 0.00 83.8 28.8 56.14 7.3
2018 08 08 13:00 266.5 0.0 0.00 85.2 29.6 48.32 6.9
2018 08 08 14:00 266.1 0.0 0.00 85.9 29.9 43.11 6.7
2018 08 08 15:00 266.1 0.0 0.00 85.4 29.6 43.44 6.0
2018 08 08 16:00 266.1 0.0 0.00 85.0 29.4 43.19 4.6
2018 08 08 17:00 266.1 0.0 0.00 85.5 29.7 41.97 3.7
2018 08 08 18:00 266.0 0.0 0.00 86.1 30.1 41.86 1.6
2018 08 08 19:00 266.7 0.0 0.00 83.0 28.3 49.41 0.2
2018 08 08 20:00 268.5 0.0 0.00 78.1 25.6 60.73 0.6
2018 08 08 21:00 271.1 0.0 0.00 73.4 23.0 75.4 0.0
2018 08 08 22:00 281.7 0.0 0.00 70.7 21.5 85 0.0
2018 08 08 23:00 Wet 311.8 0.0 0.00 69.1 20.6 88.4 0.0
2018 08 08 24:00 Wet 356.8 0.0 0.00 68.1 20.0 91.7 0.3
2018 08 09 1:00 Wet 392.5 0.0 0.00 66.0 18.9 95.9 0.0
2018 08 09 2:00 Wet 393.6 0.0 0.00 65.3 18.5 96.5 0.4
2018 08 09 3:00 Wet 384.5 0.0 0.00 64.2 17.9 96.6 0.5
2018 08 09 4:00 Wet 379.3 0.0 0.00 63.6 17.6 97.2 0.4
2018 08 09 5:00 Wet 380.3 0.0 0.00 63.1 17.3 97.6 0.0
2018 08 09 6:00 Wet 368.1 0.0 0.00 62.5 17.0 97.8 0.0
2018 08 09 7:00 Wet 294.8 0.0 0.00 65.5 18.6 96.6 1.6
2018 08 09 8:00 269.2 0.0 0.00 72.5 22.5 81.7 1.6
2018 08 09 9:00 266.9 0.0 0.00 78.6 25.9 69.97 0.6
2018 08 09 10:00 265.3 0.0 0.00 83.7 28.7 52.32 1.2
2018 08 09 11:00 264.7 0.0 0.00 86.6 30.4 40.01 2.9
2018 08 09 12:00 263.7 0.0 0.00 88.2 31.2 30.95 4.0
2018 08 09 13:00 263.7 0.0 0.00 88.7 31.5 29.55 4.8
2018 08 09 14:00 264.3 0.0 0.00 88.1 31.2 31.42 4.4
2018 08 09 15:00 264.6 0.0 0.00 88.9 31.6 31.93 3.3
2018 08 09 16:00 264.7 0.0 0.00 89.3 31.8 32.96 4.5
2018 08 09 17:00 265.0 0.0 0.00 87.8 31.0 42.84 5.4
2018 08 09 18:00 265.5 0.0 0.00 86.1 30.1 47.37 5.2
2018 08 09 19:00 266.4 0.0 0.00 83.3 28.5 53.36 2.3
2018 08 09 20:00 267.4 0.0 0.00 80.0 26.7 58.23 2.4
2018 08 09 21:00 268.2 0.0 0.00 77.0 25.0 62.81 1.2
2018 08 09 22:00 268.9 0.0 0.00 74.9 23.9 66.57 1.4
2018 08 09 23:00 269.6 0.0 0.00 73.0 22.8 70.17 0.4
2018 08 09 24:00 270.3 0.0 0.00 71.1 21.7 73.55 0.8
2018 08 10 1:00 271.9 0.0 0.00 69.8 21.0 74.91 0.0
2018 08 10 2:00 272.4 0.0 0.00 69.0 20.5 77.37 0.5
2018 08 10 3:00 273.2 0.0 0.00 68.6 20.3 81.3 0.8
2018 08 10 4:00 Wet 284.5 0.0 0.00 65.3 18.5 88.7 0.1
2018 08 10 5:00 Wet 336.8 0.0 0.00 63.4 17.5 94.8 0.0
2018 08 10 6:00 Wet 364.6 0.0 0.00 63.2 17.3 95.3 0.0
2018 08 10 7:00 Wet 307.7 0.0 0.00 66.3 19.1 91.9 0.4
2018 08 10 8:00 268.0 0.0 0.00 72.4 22.4 78.05 1.3
2018 08 10 9:00 266.9 0.0 0.00 79.1 26.2 63.42 3.6
2018 08 10 10:00 265.9 0.0 0.00 83.4 28.6 54.13 4.2
2018 08 10 11:00 265.5 0.0 0.00 85.8 29.9 51.18 5.2
2018 08 10 12:00 265.4 0.0 0.00 88.6 31.4 47.67 5.4
2018 08 10 13:00 265.2 0.0 0.00 89.1 31.7 46.88 3.7
2018 08 10 14:00 265.0 0.0 0.00 91.0 32.8 43.15 4.9
2018 08 10 15:00 267.0 0.0 0.00 90.0 32.2 45.79 5.7
2018 08 10 16:00 266.3 0.0 0.00 88.5 31.4 49.35 6.0
2018 08 10 17:00 266.7 0.0 0.00 85.1 29.5 53.55 2.7
2018 08 10 18:00 266.9 0.0 0.00 82.2 27.9 57.4 5.4
2018 08 10 19:00 268.1 0.0 0.00 78.2 25.6 69.3 3.2
2018 08 10 20:00 269.7 0.0 0.00 75.7 24.3 76.43 0.4
2018 08 10 21:00 271.5 0.0 0.00 74.1 23.4 81.2 0.3
2018 08 10 22:00 272.0 0.0 0.00 72.9 22.7 83.8 1.4
2018 08 10 23:00 272.8 0.0 0.00 72.2 22.4 87.3 2.5
2018 08 10 24:00 274.0 0.0 0.00 70.7 21.5 90.8 1.7
2018 08 11 1:00 274.7 0.0 0.00 69.7 20.9 92.7 1.8
2018 08 11 2:00 Wet 292.8 0.0 0.00 68.8 20.4 93.9 0.6
2018 08 11 3:00 Wet 320.0 0.0 0.00 68.2 20.1 94.5 1.9
2018 08 11 4:00 Wet 339.5 0.0 0.00 67.9 19.9 94.3 0.6
2018 08 11 5:00 Wet 371.9 0.0 0.00 66.7 19.3 96.3 0.7
2018 08 11 6:00 Wet 384.2 0.0 0.00 66.5 19.2 96.8 1.8
2018 08 11 7:00 Wet 331.5 0.0 0.00 68.8 20.4 94.3 2.1
2018 08 11 8:00 276.2 0.0 0.00 73.5 23.0 82.1 2.7
2018 08 11 9:00 268.2 0.0 0.00 77.2 25.1 73.87 3.1
2018 08 11 10:00 267.2 0.0 0.00 81.1 27.3 61.98 4.5
2018 08 11 11:00 266.0 0.0 0.00 83.6 28.6 48.85 4.9
2018 08 11 12:00 265.0 0.0 0.00 85.9 29.9 37.94 5.4
2018 08 11 13:00 264.7 0.0 0.00 87.1 30.6 35.76 6.3
2018 08 11 14:00 264.7 0.0 0.00 87.2 30.6 31.95 6.3
2018 08 11 15:00 264.7 0.0 0.00 87.1 30.6 31.64 6.8
2018 08 11 16:00 264.7 0.0 0.00 87.3 30.8 33.73 7.1
2018 08 11 17:00 265.1 0.0 0.00 86.1 30.0 38.84 6.8
2018 08 11 18:00 265.2 0.0 0.00 84.3 29.0 40.37 5.9
2018 08 11 19:00 266.1 0.0 0.00 81.5 27.5 49.19 3.1
2018 08 11 20:00 267.4 0.0 0.00 77.8 25.4 56.37 0.9
2018 08 11 21:00 269.7 0.0 0.00 72.1 22.3 70.37 0.0
2018 08 11 22:00 272.1 0.0 0.00 69.5 20.8 78.76 0.1
2018 08 11 23:00 273.6 0.0 0.00 68.6 20.3 80.3 0.1
2018 08 11 24:00 Wet 285.4 0.0 0.00 65.4 18.6 90 0.4
2018 08 12 1:00 277.4 0.0 0.00 66.3 19.1 86.4 1.2
2018 08 12 2:00 Wet 300.8 0.0 0.00 64.1 17.8 93 0.5
2018 08 12 3:00 Wet 341.2 0.0 0.00 62.7 17.1 95 0.2
2018 08 12 4:00 Wet 373.6 0.0 0.00 63.0 17.2 95 0.3
2018 08 12 5:00 Wet 389.1 0.0 0.00 62.5 17.0 94.2 0.0
2018 08 12 6:00 Wet 402.4 0.0 0.00 61.1 16.2 96.6 0.2
2018 08 12 7:00 Wet 364.5 0.0 0.00 63.1 17.3 96 0.5
2018 08 12 8:00 Wet 321.3 0.0 0.00 67.4 19.7 88.5 0.5
2018 08 12 9:00 271.5 0.0 0.00 74.8 23.8 70.78 1.4
2018 08 12 10:00 266.5 0.0 0.00 80.7 27.0 55.97 2.2
2018 08 12 11:00 265.6 0.0 0.00 82.8 28.2 50.91 3.5
2018 08 12 12:00 265.4 0.0 0.00 84.9 29.4 46.98 4.4
2018 08 12 13:00 265.2 0.0 0.00 86.1 30.1 42.19 5.9
2018 08 12 14:00 264.8 0.0 0.00 87.0 30.5 40.68 4.8
2018 08 12 15:00 265.3 0.0 0.00 87.0 30.6 41.13 4.4
2018 08 12 16:00 265.4 0.0 0.00 87.2 30.6 40.96 4.6
2018 08 12 17:00 265.5 0.0 0.00 86.5 30.3 44.84 4.7
2018 08 12 18:00 266.3 0.0 0.00 84.8 29.3 50.91 4.3
2018 08 12 19:00 267.0 0.0 0.00 83.0 28.4 55.77 3.1
2018 08 12 20:00 267.8 0.0 0.00 80.5 26.9 61.45 2.5
2018 08 12 21:00 269.4 0.0 0.00 76.6 24.8 70.93 0.2
2018 08 12 22:00 270.9 0.0 0.00 74.4 23.6 77.16 0.7
2018 08 12 23:00 273.5 0.0 0.00 71.7 22.1 84.3 0.0
2018 08 12 24:00 Wet 303.6 0.0 0.00 69.3 20.7 91.2 0.2
2018 08 13 1:00 Wet 344.7 0.0 0.00 68.1 20.1 93.1 0.5
2018 08 13 2:00 Wet 383.2 0.0 0.00 66.5 19.2 95.9 0.3
2018 08 13 3:00 Wet 398.4 0.0 0.00 65.6 18.7 96.4 0.3
2018 08 13 4:00 Wet 397.3 0.0 0.00 64.8 18.2 97.1 0.6
2018 08 13 5:00 Wet 383.3 0.0 0.00 64.4 18.0 97.2 0.6
2018 08 13 6:00 Wet 371.2 0.0 0.00 64.3 17.9 96.9 0.0
2018 08 13 7:00 Wet 321.5 0.0 0.00 65.0 18.4 97 0.0
2018 08 13 8:00 274.9 0.0 0.00 69.8 21.0 87.6 1.3
2018 08 13 9:00 267.7 0.0 0.00 75.7 24.3 72.81 1.6
2018 08 13 10:00 266.4 0.0 0.00 81.0 27.2 60.1 3.4
2018 08 13 11:00 265.7 0.0 0.00 84.3 29.1 49.3 4.5
2018 08 13 12:00 264.8 0.0 0.00 86.6 30.4 40.72 4.0
2018 08 13 13:00 264.7 0.0 0.00 87.7 31.0 37.27 5.0
2018 08 13 14:00 264.7 0.0 0.00 88.0 31.1 35.23 5.7
2018 08 13 15:00 264.7 0.0 0.00 88.8 31.5 33.37 7.0
2018 08 13 16:00 264.7 0.0 0.00 88.7 31.5 33.76 7.4
2018 08 13 17:00 264.7 0.0 0.00 88.2 31.2 33.63 6.9
2018 08 13 18:00 264.7 0.0 0.00 86.7 30.4 36.56 5.6
2018 08 13 19:00 265.5 0.0 0.00 83.9 28.8 42.24 2.8
2018 08 13 20:00 266.3 0.0 0.00 80.3 26.8 48.86 1.6
2018 08 13 21:00 267.1 0.0 0.00 77.5 25.3 54.9 0.5
2018 08 13 22:00 268.3 0.0 0.00 73.8 23.3 63.46 0.3
2018 08 13 23:00 269.3 0.0 0.00 71.1 21.7 71.93 0.3
2018 08 13 24:00 271.6 0.0 0.00 68.5 20.3 80 0.2
2018 08 14 1:00 273.4 0.0 0.00 66.8 19.3 84.4 0.0
2018 08 14 2:00 273.9 0.0 0.00 66.0 18.9 86.8 0.0
2018 08 14 3:00 279.9 0.0 0.00 65.0 18.3 89.8 0.0
2018 08 14 4:00 Wet 301.4 0.0 0.00 64.3 18.0 92 0.0
2018 08 14 5:00 Wet 314.2 0.0 0.00 64.2 17.9 91.7 0.0
2018 08 14 6:00 Wet 330.2 0.0 0.00 64.1 17.8 92.6 0.2
2018 08 14 7:00 281.2 0.0 0.00 67.2 19.6 88 0.9
2018 08 14 8:00 269.1 0.0 0.00 72.7 22.6 76.36 3.6
2018 08 14 9:00 267.9 0.0 0.00 77.9 25.5 66.46 4.5
2018 08 14 10:00 267.4 0.0 0.00 79.7 26.5 62.16 5.5
2018 08 14 11:00 267.0 0.0 0.00 80.8 27.1 60.54 4.5
2018 08 14 12:00 267.0 0.0 0.00 81.7 27.6 58.04 6.2
2018 08 14 13:00 267.3 0.0 0.00 81.4 27.4 59.76 8.6
2018 08 14 14:00 267.3 0.0 0.00 80.7 27.0 60.43 6.6
2018 08 14 15:00 267.1 0.0 0.00 81.1 27.3 59.74 6.2
2018 08 14 16:00 Wet 363.0 0.0 1.02 75.3 24.0 79 7.3
2018 08 14 17:00 Wet 362.3 0.1 2.54 72.6 22.5 91 5.4
2018 08 14 18:00 Wet 301.1 0.0 0.00 71.9 22.2 94 2.2
2018 08 14 19:00 277.0 0.0 0.00 72.0 22.2 94.3 1.9
2018 08 14 20:00 Wet 314.3 0.0 0.00 71.3 21.9 95.7 1.5
2018 08 14 21:00 Wet 382.9 0.0 0.00 70.6 21.4 96.4 1.9
2018 08 14 22:00 Wet 383.6 0.0 0.00 70.2 21.2 97.3 1.9
2018 08 14 23:00 Wet 390.4 0.0 0.00 70.5 21.4 97.9 1.7
2018 08 14 24:00 Wet 392.1 0.0 0.00 70.7 21.5 97.8 1.6
2018 08 15 1:00 Wet 378.0 0.0 0.00 70.8 21.6 96.7 1.9
2018 08 15 2:00 Wet 353.8 0.0 0.00 70.7 21.5 95.7 1.4
2018 08 15 3:00 Wet 349.9 0.0 0.00 70.4 21.3 95.8 0.9
2018 08 15 4:00 Wet 372.1 0.0 0.00 69.9 21.1 96.4 0.9
2018 08 15 5:00 Wet 368.1 0.0 0.00 69.9 21.1 96.1 0.9
2018 08 15 6:00 Wet 333.6 0.0 0.00 69.8 21.0 94.4 2.5
2018 08 15 7:00 Wet 300.0 0.0 0.00 69.9 21.1 92.9 3.1
2018 08 15 8:00 275.9 0.0 0.00 70.3 21.3 92.4 4.2
2018 08 15 9:00 Wet 292.9 0.0 0.00 69.9 21.1 93.7 4.0
2018 08 15 10:00 272.2 0.0 0.00 71.6 22.0 89.6 3.6
2018 08 15 11:00 271.6 0.0 0.00 72.9 22.7 86.8 5.5
2018 08 15 12:00 270.4 0.0 0.00 75.2 24.0 81 6.5
2018 08 15 13:00 269.3 0.0 0.00 77.8 25.4 73.63 5.4
2018 08 15 14:00 Wet 294.3 0.0 0.51 77.6 25.3 75.56 5.7
2018 08 15 15:00 Wet 303.0 0.0 0.00 77.1 25.0 81.4 6.0
2018 08 15 16:00 269.5 0.0 0.00 80.6 27.0 69.8 2.8
2018 08 15 17:00 269.0 0.0 0.00 82.3 27.9 64.06 2.6
2018 08 15 18:00 Wet 333.9 0.2 3.81 79.6 26.5 70.69 5.3
2018 08 15 19:00 Wet 411.0 0.1 1.52 73.9 23.3 90.5 4.4
2018 08 15 20:00 Wet 313.9 0.0 0.00 73.5 23.1 90.1 2.3
2018 08 15 21:00 Wet 284.4 0.0 0.00 73.3 22.9 90.6 0.1
2018 08 15 22:00 Wet 303.3 0.0 0.00 72.2 22.3 93.3 0.8
2018 08 15 23:00 Wet 308.9 0.0 0.00 71.9 22.2 93.6 0.1
2018 08 15 24:00 Wet 317.8 0.0 0.00 71.3 21.8 94.7 0.7
2018 08 16 1:00 Wet 372.1 0.0 0.00 70.6 21.4 96 0.2
2018 08 16 2:00 Wet 392.8 0.0 0.00 70.2 21.2 96.2 0.3
2018 08 16 3:00 Wet 392.9 0.0 0.00 69.3 20.8 96.9 0.8
2018 08 16 4:00 Wet 388.4 0.0 0.00 68.8 20.4 97.8 0.7
2018 08 16 5:00 Wet 376.9 0.0 0.00 68.7 20.4 98.1 0.3
2018 08 16 6:00 Wet 368.5 0.0 0.00 68.7 20.4 98 0.1
2018 08 16 7:00 Wet 296.2 0.0 0.00 70.6 21.4 97.3 1.8
2018 08 16 8:00 270.7 0.0 0.00 74.1 23.4 89.2 4.2
2018 08 16 9:00 269.5 0.0 0.00 76.9 25.0 81.9 4.2
2018 08 16 10:00 268.9 0.0 0.00 79.5 26.4 75.2 4.0
2018 08 16 11:00 268.1 0.0 0.00 82.3 27.9 68.52 4.2
2018 08 16 12:00 267.4 0.0 0.00 85.0 29.4 60.81 5.4
2018 08 16 13:00 267.1 0.0 0.00 86.6 30.3 54.38 5.6
2018 08 16 14:00 266.7 0.0 0.00 88.1 31.2 51.88 5.2
2018 08 16 15:00 266.7 0.0 0.00 89.0 31.6 49.75 5.1
2018 08 16 16:00 266.7 0.0 0.00 89.2 31.8 48.51 6.3
2018 08 16 17:00 266.7 0.0 0.00 89.6 32.0 46.79 6.0
2018 08 16 18:00 266.9 0.0 0.00 88.4 31.4 48.9 4.6
2018 08 16 19:00 267.7 0.0 0.00 86.0 30.0 54.79 1.4
2018 08 16 20:00 268.6 0.0 0.00 83.2 28.5 60.93 2.4
2018 08 16 21:00 268.8 0.0 0.00 81.8 27.6 65.86 4.0
2018 08 16 22:00 Wet 308.7 0.0 0.25 80.3 26.8 70.79 6.4
2018 08 16 23:00 Wet 356.1 0.0 0.25 76.0 24.4 81.9 4.3
2018 08 16 24:00 Wet 345.8 0.0 0.25 73.1 22.9 87.1 2.9
2018 08 17 1:00 Wet 298.9 0.0 0.00 73.7 23.1 86.3 5.7
2018 08 17 2:00 274.0 0.0 0.00 72.7 22.6 87.4 1.6
2018 08 17 3:00 277.5 0.0 0.00 71.0 21.7 91.9 0.9
2018 08 17 4:00 Wet 285.0 0.0 0.00 70.5 21.4 94.6 0.0
2018 08 17 5:00 Wet 342.9 0.0 1.02 70.8 21.6 93.9 0.7
2018 08 17 6:00 Wet 317.1 0.0 0.25 70.8 21.6 92.5 2.0
2018 08 17 7:00 279.9 0.0 0.00 71.3 21.9 92.3 2.7
2018 08 17 8:00 270.8 0.0 0.00 73.2 22.9 85 5.7
2018 08 17 9:00 270.0 0.0 0.00 75.1 23.9 80.1 6.8
2018 08 17 10:00 270.2 0.0 0.00 75.7 24.3 78.44 6.9
2018 08 17 11:00 269.7 0.0 0.00 76.7 24.8 75.93 7.8
2018 08 17 12:00 268.5 0.0 0.00 80.0 26.6 68.66 7.3
2018 08 17 13:00 269.2 0.0 0.00 81.1 27.3 63.57 6.5
2018 08 17 14:00 267.6 0.0 0.00 83.0 28.3 54.69 7.1
2018 08 17 15:00 267.2 0.0 0.00 84.8 29.3 47.27 7.4
2018 08 17 16:00 267.3 0.0 0.00 85.1 29.5 49.22 9.8
2018 08 17 17:00 267.4 0.0 0.00 82.1 27.8 52.42 9.6
2018 08 17 18:00 267.5 0.0 0.00 81.3 27.4 53.89 6.1
2018 08 17 19:00 268.3 0.0 0.00 79.7 26.5 60.88 3.0
2018 08 17 20:00 269.3 0.0 0.00 77.3 25.2 66.99 0.8
2018 08 17 21:00 272.1 0.0 0.00 73.4 23.0 78.77 0.0
2018 08 17 22:00 274.3 0.0 0.00 71.9 22.1 84.1 0.2
2018 08 17 23:00 Wet 288.8 0.0 0.00 70.4 21.4 88.5 0.3
2018 08 17 24:00 Wet 322.4 0.0 0.00 69.2 20.6 92.1 1.0
2018 08 18 1:00 Wet 328.2 0.0 0.00 69.0 20.6 91.1 2.2
2018 08 18 2:00 Wet 334.0 0.0 0.00 68.3 20.2 91.8 1.3
2018 08 18 3:00 Wet 344.9 0.0 0.00 67.4 19.7 94.7 1.0
2018 08 18 4:00 Wet 348.2 0.0 0.00 67.2 19.6 94.6 0.5
2018 08 18 5:00 Wet 377.4 0.0 0.00 67.2 19.5 95.1 1.0
2018 08 18 6:00 Wet 398.3 0.0 0.00 66.4 19.1 96.2 0.3
2018 08 18 7:00 Wet 353.5 0.0 0.00 67.7 19.8 95.3 3.0
2018 08 18 8:00 Wet 301.8 0.0 0.00 70.3 21.3 88 4.6
2018 08 18 9:00 270.0 0.0 0.00 73.5 23.0 79.77 3.3
2018 08 18 10:00 269.1 0.0 0.00 77.0 25.0 72.18 4.1
2018 08 18 11:00 268.3 0.0 0.00 80.0 26.6 63.14 5.4
2018 08 18 12:00 267.5 0.0 0.00 82.1 27.8 55.75 5.5
2018 08 18 13:00 267.2 0.0 0.00 83.1 28.4 53.04 4.7
2018 08 18 14:00 266.8 0.0 0.00 83.9 28.8 51.33 4.4
2018 08 18 15:00 266.9 0.0 0.00 84.7 29.3 48.54 4.1
2018 08 18 16:00 266.8 0.0 0.00 84.6 29.2 48.86 3.2
2018 08 18 17:00 266.7 0.0 0.00 84.7 29.3 48.77 3.3
2018 08 18 18:00 267.4 0.0 0.00 83.2 28.5 53.43 4.5
2018 08 18 19:00 268.2 0.0 0.00 80.8 27.1 59.65 3.6
2018 08 18 20:00 269.2 0.0 0.00 78.1 25.6 67.16 1.5
2018 08 18 21:00 271.4 0.0 0.00 74.3 23.5 77.7 0.2
2018 08 18 22:00 273.5 0.0 0.00 72.6 22.6 82.4 0.2
2018 08 18 23:00 Wet 300.9 0.0 0.00 69.3 20.7 92.4 0.1
2018 08 18 24:00 Wet 337.3 0.0 0.00 68.8 20.4 92.3 0.1
2018 08 19 1:00 Wet 365.2 0.0 0.00 67.3 19.6 95.2 0.1
2018 08 19 2:00 Wet 383.6 0.0 0.00 66.9 19.4 96.5 0.1
2018 08 19 3:00 Wet 399.2 0.0 0.00 65.9 18.9 96.4 0.0
2018 08 19 4:00 Wet 411.1 0.0 0.00 65.4 18.6 97.2 0.0
2018 08 19 5:00 Wet 414.7 0.0 0.00 64.8 18.2 97.4 0.0
2018 08 19 6:00 Wet 411.1 0.0 0.00 63.8 17.7 97.7 0.0
2018 08 19 7:00 Wet 369.7 0.0 0.00 65.6 18.7 98.1 0.1
2018 08 19 8:00 Wet 319.0 0.0 0.00 69.4 20.8 95.4 2.4
2018 08 19 9:00 269.9 0.0 0.00 74.8 23.8 80.7 3.4
2018 08 19 10:00 268.7 0.0 0.00 78.5 25.8 68.9 5.1
2018 08 19 11:00 267.7 0.0 0.00 80.8 27.1 60.37 5.6
2018 08 19 12:00 266.8 0.0 0.00 82.8 28.2 52.29 5.7
2018 08 19 13:00 266.4 0.0 0.00 84.1 28.9 48.51 5.8
2018 08 19 14:00 266.7 0.0 0.00 84.0 28.9 49.66 6.1
2018 08 19 15:00 266.7 0.0 0.00 84.1 28.9 49.92 6.1
2018 08 19 16:00 266.7 0.0 0.00 83.3 28.5 51.56 6.1
2018 08 19 17:00 267.4 0.0 0.00 82.2 27.9 55.5 5.6
2018 08 19 18:00 267.8 0.0 0.00 80.7 27.1 59.23 4.8
2018 08 19 19:00 268.5 0.0 0.00 79.1 26.2 64.75 4.0
2018 08 19 20:00 269.1 0.0 0.00 77.8 25.4 69.27 3.7
2018 08 19 21:00 269.5 0.0 0.00 77.0 25.0 72.7 5.4
2018 08 19 22:00 269.7 0.0 0.00 77.1 25.0 73.21 4.7
2018 08 19 23:00 279.2 0.0 0.00 77.0 25.0 74.71 4.7
2018 08 19 24:00 Wet 442.5 0.3 7.11 74.9 23.8 84.1 4.0
2018 08 20 1:00 Wet 500.2 0.2 3.81 72.1 22.3 94.3 5.6
2018 08 20 2:00 Wet 457.6 0.0 0.25 71.7 22.1 95.5 3.0
2018 08 20 3:00 Wet 318.2 0.0 0.00 72.1 22.3 94.5 5.4
2018 08 20 4:00 Wet 298.7 0.0 0.00 71.8 22.1 95.1 3.6
2018 08 20 5:00 Wet 296.1 0.0 0.00 71.7 22.0 94.8 5.2
2018 08 20 6:00 274.6 0.0 0.00 71.7 22.1 88.8 8.0
2018 08 20 7:00 271.8 0.0 0.00 70.3 21.3 82.4 8.8
2018 08 20 8:00 271.5 0.0 0.25 70.1 21.1 81.4 8.1
2018 08 20 9:00 271.1 0.0 0.00 70.9 21.6 80.4 7.8
2018 08 20 10:00 270.0 0.0 0.00 72.8 22.7 73.79 8.7
2018 08 20 11:00 269.2 0.0 0.00 74.6 23.6 68.1 9.0
2018 08 20 12:00 268.3 0.0 0.00 77.2 25.1 62.03 10.0
2018 08 20 13:00 267.5 0.0 0.00 79.8 26.6 55.82 9.8
2018 08 20 14:00 267.6 0.0 0.00 80.2 26.8 55.69 7.0
2018 08 20 15:00 268.0 0.0 0.00 79.6 26.5 59.86 7.5
2018 08 20 16:00 267.7 0.0 0.00 79.8 26.5 56.69 7.2
2018 08 20 17:00 268.1 0.0 0.00 77.9 25.5 59.47 3.7
2018 08 20 18:00 268.9 0.0 0.00 75.8 24.3 67.87 6.3
2018 08 20 19:00 269.6 0.0 0.00 73.9 23.3 73.35 4.0
2018 08 20 20:00 270.7 0.0 0.00 72.2 22.3 78.58 2.1
2018 08 20 21:00 270.6 0.0 0.00 71.7 22.1 78.55 3.8
2018 08 20 22:00 270.7 0.0 0.00 70.5 21.4 79.89 3.5
2018 08 20 23:00 271.2 0.0 0.00 69.5 20.9 84.4 4.2
2018 08 20 24:00 272.1 0.0 0.00 68.6 20.3 88.6 3.3
2018 08 21 1:00 Wet 293.0 0.0 0.00 67.4 19.7 94.6 2.7
2018 08 21 2:00 Wet 311.6 0.0 0.00 67.2 19.5 97.1 2.1
2018 08 21 3:00 Wet 327.7 0.0 0.00 67.5 19.7 96.4 2.5
2018 08 21 4:00 Wet 344.2 0.0 0.00 67.2 19.6 95 3.2
2018 08 21 5:00 Wet 336.7 0.0 0.00 66.9 19.4 94.1 6.7
2018 08 21 6:00 Wet 289.7 0.0 0.00 67.2 19.6 93 7.3
2018 08 21 7:00 274.1 0.0 0.00 67.7 19.8 93.1 7.2
2018 08 21 8:00 Wet 297.6 0.0 0.00 67.3 19.6 91.9 8.2
2018 08 21 9:00 272.0 0.0 0.00 68.0 20.0 85 9.3
2018 08 21 10:00 271.0 0.0 0.00 69.6 20.9 79.19 9.9
2018 08 21 11:00 270.4 0.0 0.00 70.7 21.5 74.95 11.4
2018 08 21 12:00 269.0 0.0 0.00 75.4 24.1 62.35 10.6
2018 08 21 13:00 268.2 0.0 0.00 77.9 25.5 54.63 10.6
2018 08 21 14:00 267.9 0.0 0.00 78.9 26.1 51.7 10.2
2018 08 21 15:00 267.7 0.0 0.00 80.0 26.7 49.88 9.0
2018 08 21 16:00 267.5 0.0 0.00 80.6 27.0 48.2 8.9
2018 08 21 17:00 267.4 0.0 0.00 80.7 27.1 47.35 7.8
2018 08 21 18:00 267.4 0.0 0.00 79.7 26.5 49.79 5.9
2018 08 21 19:00 268.5 0.0 0.00 76.9 24.9 56.75 1.1
2018 08 21 20:00 269.6 0.0 0.00 73.3 22.9 64.76 0.2
2018 08 21 21:00 270.5 0.0 0.00 70.8 21.6 73.82 0.0
2018 08 21 22:00 270.4 0.0 0.00 70.8 21.6 73.83 2.9
2018 08 21 23:00 270.2 0.0 0.00 70.9 21.6 71.91 3.2
2018 08 21 24:00 270.7 0.0 0.00 69.2 20.7 76.17 2.2
2018 08 22 1:00 271.2 0.0 0.00 67.6 19.8 80.1 3.1
2018 08 22 2:00 272.1 0.0 0.00 66.1 18.9 84 4.6
2018 08 22 3:00 273.6 0.0 0.00 64.7 18.2 86.5 3.4
2018 08 22 4:00 274.9 0.0 0.00 63.5 17.5 88.6 3.8
2018 08 22 5:00 Wet 286.4 0.0 0.00 62.1 16.7 90.5 3.0
2018 08 22 6:00 Wet 319.4 0.0 0.00 61.1 16.2 92.5 3.0
2018 08 22 7:00 Wet 288.0 0.0 0.00 61.7 16.5 91.5 3.6
2018 08 22 8:00 271.0 0.0 0.00 63.5 17.5 83.9 4.8
2018 08 22 9:00 269.5 0.0 0.00 66.5 19.2 71.01 3.8
2018 08 22 10:00 267.8 0.0 0.00 69.9 21.1 56.58 5.3
2018 08 22 11:00 266.8 0.0 0.00 72.8 22.7 45.48 5.8
2018 08 22 12:00 266.0 0.0 0.00 74.0 23.4 43.19 5.2
2018 08 22 13:00 265.7 0.0 0.00 76.0 24.4 38.33 5.9
2018 08 22 14:00 265.4 0.0 0.00 77.6 25.4 32.56 5.8
2018 08 22 15:00 265.4 0.0 0.00 78.1 25.6 32.63 5.7
2018 08 22 16:00 265.4 0.0 0.00 78.4 25.8 33.15 5.3
2018 08 22 17:00 265.4 0.0 0.00 78.8 26.0 33.36 3.9
2018 08 22 18:00 265.6 0.0 0.00 76.8 24.9 35.25 3.5
2018 08 22 19:00 266.5 0.0 0.00 73.2 22.9 43.34 0.6
2018 08 22 20:00 268.6 0.0 0.00 66.7 19.3 59.28 0.0
2018 08 22 21:00 271.0 0.0 0.00 63.6 17.6 71.82 1.1
2018 08 22 22:00 Wet 286.8 0.0 0.00 59.9 15.5 82.9 0.0
2018 08 22 23:00 Wet 323.1 0.0 0.00 58.4 14.7 87.1 0.0
2018 08 22 24:00 Wet 367.4 0.0 0.00 56.9 13.8 91.9 0.0
2018 08 23 1:00 Wet 394.8 0.0 0.00 55.7 13.2 95.4 0.1
2018 08 23 2:00 Wet 421.5 0.0 0.00 55.1 12.8 95.2 0.0
2018 08 23 3:00 Wet 426.6 0.0 0.00 54.5 12.5 96.2 0.1
2018 08 23 4:00 Wet 423.6 0.0 0.00 53.3 11.8 96.6 0.0
2018 08 23 5:00 Wet 428.2 0.0 0.00 52.7 11.5 97.3 0.0
2018 08 23 6:00 Wet 430.8 0.0 0.00 52.1 11.1 97.6 0.0
2018 08 23 7:00 Wet 367.5 0.0 0.00 54.7 12.6 98.1 0.0
2018 08 23 8:00 Wet 288.5 0.0 0.00 60.3 15.7 87.3 0.5
2018 08 23 9:00 267.5 0.0 0.00 67.9 19.9 67.32 3.0
2018 08 23 10:00 266.2 0.0 0.00 73.9 23.3 46.33 6.4
2018 08 23 11:00 265.5 0.0 0.00 74.8 23.8 41.13 7.3
2018 08 23 12:00 265.3 0.0 0.00 75.5 24.2 41.05 6.4
2018 08 23 13:00 265.2 0.0 0.00 76.3 24.6 39.48 6.1
2018 08 23 14:00 265.4 0.0 0.00 76.6 24.8 38.5 6.3
2018 08 23 15:00 265.4 0.0 0.00 76.4 24.7 38.91 6.3
2018 08 23 16:00 265.5 0.0 0.00 76.5 24.7 41.29 5.9
2018 08 23 17:00 266.1 0.0 0.00 75.3 24.0 44.81 6.3
2018 08 23 18:00 266.7 0.0 0.00 73.8 23.2 49.92 6.3
2018 08 23 19:00 267.0 0.0 0.00 72.1 22.3 53.17 4.7
2018 08 23 20:00 267.8 0.0 0.00 69.5 20.9 58.5 1.8
2018 08 23 21:00 268.5 0.0 0.00 67.5 19.7 64.44 0.8
2018 08 23 22:00 269.4 0.0 0.00 65.8 18.8 70.21 1.1
2018 08 23 23:00 269.5 0.0 0.00 65.4 18.5 72.95 1.1
2018 08 23 24:00 269.6 0.0 0.00 65.3 18.5 75.5 0.8
2018 08 24 1:00 269.5 0.0 0.00 65.4 18.6 75.64 1.9
2018 08 24 2:00 269.5 0.0 0.00 65.5 18.6 74.37 2.6
2018 08 24 3:00 269.8 0.0 0.00 65.9 18.8 72.24 3.9
2018 08 24 4:00 281.7 0.0 0.00 65.2 18.4 74.83 4.9
2018 08 24 5:00 Wet 445.7 0.1 2.79 64.1 17.8 81.9 3.8
2018 08 24 6:00 Wet 498.3 0.2 5.59 61.6 16.5 93.1 6.1
2018 08 24 7:00 Wet 518.8 0.2 5.59 61.8 16.6 93 3.9
2018 08 24 8:00 Wet 423.2 0.2 4.57 61.4 16.4 95.2 4.5
2018 08 24 9:00 Wet 417.5 0.1 1.27 62.1 16.7 94.5 3.0
2018 08 24 10:00 Wet 285.9 0.0 0.00 63.8 17.7 93.6 4.5
2018 08 24 11:00 270.5 0.0 0.00 66.7 19.3 87.5 5.6
2018 08 24 12:00 270.3 0.0 0.00 68.7 20.4 83.7 5.7
2018 08 24 13:00 270.2 0.0 0.00 70.6 21.4 82.3 6.6
2018 08 24 14:00 270.3 0.0 0.00 71.9 22.2 79.51 7.1
2018 08 24 15:00 270.6 0.0 0.00 71.5 21.9 81.3 5.5
2018 08 24 16:00 270.2 0.0 0.00 72.8 22.7 80.9 6.4
2018 08 24 17:00 270.1 0.0 0.00 75.0 23.9 77.46 7.7
2018 08 24 18:00 270.5 0.0 0.00 74.7 23.7 78.39 7.5
2018 08 24 19:00 271.3 0.0 0.00 73.2 22.9 82 7.2
2018 08 24 20:00 271.6 0.0 0.00 72.1 22.3 84.1 8.5
2018 08 24 21:00 271.7 0.0 0.00 71.8 22.1 83.3 6.9
2018 08 24 22:00 272.2 0.0 0.00 71.3 21.8 84.7 6.0
2018 08 24 23:00 272.2 0.0 0.00 71.3 21.8 85.4 4.9
2018 08 24 24:00 272.2 0.0 0.00 72.2 22.3 83.9 6.3
2018 08 25 1:00 272.2 0.0 0.00 73.1 22.8 82.8 6.8
2018 08 25 2:00 272.2 0.0 0.00 73.4 23.0 83.1 7.2
2018 08 25 3:00 272.2 0.0 0.00 73.4 23.0 83.9 6.6
2018 08 25 4:00 272.2 0.0 0.00 73.8 23.3 84 6.2
2018 08 25 5:00 272.2 0.0 0.00 74.1 23.4 84 6.5
2018 08 25 6:00 272.2 0.0 0.00 74.5 23.6 83.1 6.4
2018 08 25 7:00 271.5 0.0 0.00 75.3 24.1 81.1 6.6
2018 08 25 8:00 270.5 0.0 0.00 77.3 25.1 76.6 8.0
2018 08 25 9:00 269.3 0.0 0.00 80.8 27.1 68.83 10.3
2018 08 25 10:00 268.5 0.0 0.00 83.8 28.8 62.91 9.6
2018 08 25 11:00 267.9 0.0 0.00 85.9 30.0 59.23 10.1
2018 08 25 12:00 267.4 0.0 0.00 88.3 31.3 54.85 10.5
2018 08 25 13:00 267.3 0.0 0.00 89.7 32.0 51.89 9.4
2018 08 25 14:00 267.0 0.0 0.00 91.3 32.9 48.37 9.4
2018 08 25 15:00 267.4 0.0 0.00 91.7 33.2 47.95 9.0
2018 08 25 16:00 267.4 0.0 0.00 91.3 32.9 50.1 8.0
2018 08 25 17:00 267.1 0.0 0.00 91.0 32.8 47.73 7.7
2018 08 25 18:00 267.3 0.0 0.00 89.5 31.9 51.84 6.4
2018 08 25 19:00 267.9 0.0 0.00 86.1 30.0 57.22 6.5
2018 08 25 20:00 268.8 0.0 0.00 82.7 28.2 65.2 5.8
2018 08 25 21:00 269.6 0.0 0.00 80.5 27.0 71.14 4.3
2018 08 25 22:00 270.2 0.0 0.00 79.3 26.3 74.62 4.5
2018 08 25 23:00 270.5 0.0 0.00 78.8 26.0 76.78 4.9
2018 08 25 24:00 271.1 0.0 0.00 78.0 25.6 79.4 2.8
2018 08 26 1:00 271.5 0.0 0.00 77.6 25.4 81.4 4.9
2018 08 26 2:00 271.5 0.0 0.00 77.4 25.2 82.2 6.3
2018 08 26 3:00 271.5 0.0 0.00 77.6 25.3 81.4 7.2
2018 08 26 4:00 271.5 0.0 0.00 77.3 25.2 82.1 5.7
2018 08 26 5:00 272.3 0.0 0.00 76.2 24.6 84.6 4.6
2018 08 26 6:00 275.5 0.0 0.00 74.8 23.8 88.4 1.2
2018 08 26 7:00 273.3 0.0 0.00 74.9 23.8 89.6 0.5
2018 08 26 8:00 270.7 0.0 0.00 77.6 25.4 82.4 4.5
2018 08 26 9:00 269.1 0.0 0.00 81.7 27.6 71.86 5.9
2018 08 26 10:00 268.3 0.0 0.00 84.1 29.0 66.1 6.3
2018 08 26 11:00 267.6 0.0 0.00 86.8 30.5 60.29 6.8
2018 08 26 12:00 267.4 0.0 0.00 88.7 31.5 57.27 6.6
2018 08 26 13:00 267.1 0.0 0.00 90.5 32.5 52.74 6.9
2018 08 26 14:00 267.0 0.0 0.00 91.5 33.1 51.05 7.1
2018 08 26 15:00 267.0 0.0 0.00 91.6 33.1 46.98 8.5
2018 08 26 16:00 267.0 0.0 0.00 91.4 33.0 47.08 8.0
2018 08 26 17:00 267.1 0.0 0.00 90.8 32.7 48.17 8.9
2018 08 26 18:00 267.4 0.0 0.00 89.0 31.6 52.41 8.0
2018 08 26 19:00 268.0 0.0 0.00 86.2 30.1 58.07 6.7
2018 08 26 20:00 268.6 0.0 0.00 83.8 28.8 62.53 5.2
2018 08 26 21:00 269.2 0.0 0.00 81.8 27.7 67.56 5.2
2018 08 26 22:00 269.5 0.0 0.00 80.7 27.1 70.44 6.7
2018 08 26 23:00 269.8 0.0 0.00 79.5 26.4 71.9 6.0
2018 08 26 24:00 270.2 0.0 0.00 77.8 25.5 75.19 4.7
2018 08 27 1:00 270.8 0.0 0.00 76.4 24.7 78.37 3.9
2018 08 27 2:00 270.8 0.0 0.00 76.0 24.4 78.26 4.5
2018 08 27 3:00 271.0 0.0 0.00 75.8 24.3 78.4 4.0
2018 08 27 4:00 271.2 0.0 0.00 75.8 24.4 78.54 4.3
2018 08 27 5:00 271.5 0.0 0.00 75.4 24.1 79.81 4.0
2018 08 27 6:00 271.5 0.0 0.00 75.1 24.0 80.4 4.6
2018 08 27 7:00 270.4 0.0 0.00 76.6 24.8 77.81 6.1
2018 08 27 8:00 269.3 0.0 0.00 79.0 26.1 72.46 8.6
2018 08 27 9:00 268.5 0.0 0.00 82.0 27.8 66.32 9.3
2018 08 27 10:00 267.8 0.0 0.00 85.0 29.4 59.53 10.6
2018 08 27 11:00 267.3 0.0 0.00 87.8 31.0 53.43 11.4
2018 08 27 12:00 266.8 0.0 0.00 89.5 32.0 48.7 13.4
2018 08 27 13:00 266.6 0.0 0.00 91.2 32.9 45.54 12.0
2018 08 27 14:00 266.4 0.0 0.00 92.2 33.5 44.22 10.5
2018 08 27 15:00 266.7 0.0 0.00 91.8 33.2 43.91 11.0
2018 08 27 16:00 266.7 0.0 0.00 91.9 33.3 44.4 11.0
2018 08 27 17:00 266.8 0.0 0.00 90.8 32.6 46.04 10.7
2018 08 27 18:00 266.8 0.0 0.00 89.0 31.7 49.03 9.5
2018 08 27 19:00 267.5 0.0 0.00 86.4 30.2 54.4 7.0
2018 08 27 20:00 268.1 0.0 0.00 84.6 29.2 58.29 8.2
2018 08 27 21:00 268.5 0.0 0.00 82.9 28.3 63.84 7.8
2018 08 27 22:00 269.0 0.0 0.00 81.4 27.4 68.08 7.4
2018 08 27 23:00 269.5 0.0 0.00 80.0 26.6 71.02 6.4
2018 08 27 24:00 269.5 0.0 0.00 79.5 26.4 70.61 6.7
2018 08 28 1:00 269.5 0.0 0.00 78.8 26.0 71.48 6.2
2018 08 28 2:00 270.1 0.0 0.00 77.7 25.4 74.6 5.5
2018 08 28 3:00 270.2 0.0 0.00 77.1 25.0 76.56 5.8
2018 08 28 4:00 270.8 0.0 0.00 76.4 24.6 78.25 5.1
2018 08 28 5:00 270.8 0.0 0.00 75.7 24.3 79.61 4.4
2018 08 28 6:00 270.8 0.0 0.00 75.4 24.1 79.55 4.2
2018 08 28 7:00 269.7 0.0 0.00 76.9 25.0 74.86 4.9
2018 08 28 8:00 268.5 0.0 0.00 79.9 26.6 68.2 7.3
2018 08 28 9:00 267.9 0.0 0.00 82.8 28.2 61.58 10.4
2018 08 28 10:00 267.4 0.0 0.00 85.7 29.9 55.76 11.8
2018 08 28 11:00 266.8 0.0 0.00 88.6 31.5 50 12.1
2018 08 28 12:00 266.4 0.0 0.00 91.1 32.8 45.99 11.2
2018 08 28 13:00 266.1 0.0 0.00 92.6 33.7 42.16 11.4
2018 08 28 14:00 266.0 0.0 0.00 93.3 34.1 40.36 9.8
2018 08 28 15:00 266.1 0.0 0.00 94.0 34.4 39.32 10.1
2018 08 28 16:00 266.1 0.0 0.00 94.0 34.5 38.76 10.8
2018 08 28 17:00 266.1 0.0 0.00 92.9 33.8 41.72 9.2
2018 08 28 18:00 266.3 0.0 0.00 90.8 32.6 46.05 9.4
2018 08 28 19:00 267.1 0.0 0.00 87.7 30.9 52.59 7.9
2018 08 28 20:00 267.6 0.0 0.00 85.3 29.6 58.07 6.7
2018 08 28 21:00 268.3 0.0 0.00 83.6 28.6 63.59 7.0
2018 08 28 22:00 268.8 0.0 0.00 82.1 27.9 68.1 7.8
2018 08 28 23:00 269.2 0.0 0.00 81.1 27.3 70.43 8.2
2018 08 28 24:00 269.5 0.0 0.00 80.3 26.9 71.43 8.2
2018 08 29 1:00 269.6 0.0 0.00 79.6 26.5 73.09 5.6
2018 08 29 2:00 270.2 0.0 0.00 78.6 25.9 75.52 3.7
2018 08 29 3:00 Wet 366.5 0.1 2.03 77.5 25.3 80.7 1.9
2018 08 29 4:00 Wet 533.8 0.7 18.80 70.4 21.3 91.5 9.6
2018 08 29 5:00 Wet 566.8 0.5 12.70 67.6 19.8 96.2 2.4
2018 08 29 6:00 Wet 506.0 0.2 4.32 67.2 19.5 97.2 4.3
2018 08 29 7:00 Wet 476.1 0.0 0.76 67.5 19.7 96.5 4.0
2018 08 29 8:00 Wet 409.8 0.0 0.25 67.6 19.8 95.8 4.8
2018 08 29 9:00 Wet 341.2 0.0 0.00 67.8 19.9 94.5 2.3
2018 08 29 10:00 Wet 291.4 0.0 0.00 68.0 20.0 94.4 4.3
2018 08 29 11:00 273.7 0.0 0.00 68.5 20.3 92.9 3.0
2018 08 29 12:00 272.3 0.0 0.00 69.4 20.8 91.6 3.6
2018 08 29 13:00 272.5 0.0 0.00 69.9 21.1 91.1 4.4
2018 08 29 14:00 272.1 0.0 0.00 70.6 21.4 90.8 7.5
2018 08 29 15:00 271.5 0.0 0.00 72.0 22.2 84.9 9.1
2018 08 29 16:00 270.9 0.0 0.00 73.9 23.3 79.77 7.2
2018 08 29 17:00 270.8 0.0 0.00 74.5 23.6 78.37 6.3
2018 08 29 18:00 271.0 0.0 0.00 73.6 23.1 79.43 3.9
2018 08 29 19:00 271.5 0.0 0.00 72.6 22.5 80.4 3.3
2018 08 29 20:00 271.5 0.0 0.00 71.9 22.2 82 2.0
2018 08 29 21:00 271.7 0.0 0.00 71.4 21.9 84.1 1.2
2018 08 29 22:00 272.2 0.0 0.00 70.8 21.6 87.4 0.9
2018 08 29 23:00 272.6 0.0 0.00 70.4 21.4 88.8 0.2
2018 08 29 24:00 273.3 0.0 0.00 70.2 21.2 90.8 0.3
2018 08 30 1:00 273.4 0.0 0.00 70.1 21.2 91 1.1
2018 08 30 2:00 274.9 0.0 0.00 69.4 20.8 91.6 2.5
2018 08 30 3:00 Wet 311.0 0.0 0.00 67.9 20.0 93.9 1.3
2018 08 30 4:00 Wet 313.0 0.0 0.00 67.3 19.6 94 3.3
2018 08 30 5:00 Wet 306.3 0.0 0.00 66.6 19.2 93 2.3
2018 08 30 6:00 Wet 325.1 0.0 0.00 65.9 18.9 94.1 1.6
2018 08 30 7:00 283.6 0.0 0.00 66.8 19.3 92.1 0.5
2018 08 30 8:00 271.7 0.0 0.00 67.8 19.9 89.2 1.6
2018 08 30 9:00 271.0 0.0 0.00 69.6 20.9 86.6 3.8
2018 08 30 10:00 270.2 0.0 0.00 72.1 22.3 80.7 3.5
2018 08 30 11:00 269.4 0.0 0.00 74.5 23.6 75.2 1.9
2018 08 30 12:00 269.3 0.0 0.00 75.8 24.3 72.57 2.0
2018 08 30 13:00 268.8 0.0 0.00 77.2 25.1 70.77 2.6
2018 08 30 14:00 268.7 0.0 0.00 77.5 25.3 70.74 1.8
2018 08 30 15:00 268.8 0.0 0.00 78.3 25.7 69.7 2.5
2018 08 30 16:00 270.1 0.0 0.00 77.3 25.2 71.72 2.7
2018 08 30 17:00 270.2 0.0 0.00 77.0 25.0 72.66 1.9
2018 08 30 18:00 270.4 0.0 0.00 76.5 24.7 74.78 4.3
2018 08 30 19:00 271.3 0.0 0.00 74.6 23.7 80.1 2.5
2018 08 30 20:00 272.0 0.0 0.00 73.5 23.1 84.1 2.4
2018 08 30 21:00 272.2 0.0 0.00 73.0 22.8 83.5 3.0
2018 08 30 22:00 272.4 0.0 0.00 72.3 22.4 83.7 1.0
2018 08 30 23:00 274.1 0.0 0.00 71.4 21.9 86.6 0.8
2018 08 30 24:00 277.6 0.0 0.00 70.4 21.3 89.8 0.5
2018 08 31 1:00 Wet 290.9 0.0 0.00 69.4 20.8 92.3 0.5
2018 08 31 2:00 Wet 330.2 0.0 0.00 68.3 20.2 94.8 0.1
2018 08 31 3:00 Wet 374.7 0.0 0.00 67.9 19.9 96.5 0.2
2018 08 31 4:00 Wet 384.8 0.0 0.00 67.1 19.5 97.1 0.2
2018 08 31 5:00 Wet 396.0 0.0 0.00 66.8 19.3 97.4 0.1
2018 08 31 6:00 Wet 402.6 0.0 0.00 66.7 19.3 97.9 0.8
2018 08 31 7:00 Wet 359.3 0.0 0.00 68.3 20.2 96.5 1.3
2018 08 31 8:00 Wet 344.4 0.0 0.00 70.0 21.1 92.7 1.3
2018 08 31 9:00 Wet 331.7 0.0 0.00 71.5 21.9 88.2 1.7
2018 08 31 10:00 Wet 291.1 0.0 0.00 73.1 22.9 85 1.0
2018 08 31 11:00 271.5 0.0 0.00 74.8 23.8 82.2 2.1
2018 08 31 12:00 271.5 0.0 0.00 75.7 24.3 79.44 3.9
2018 08 31 13:00 272.8 0.0 0.00 75.9 24.4 77.71 5.2
2018 08 31 14:00 271.0 0.0 0.00 76.6 24.8 76.96 4.2
2018 08 31 15:00 270.8 0.0 0.00 77.4 25.2 75.76 6.0
2018 08 31 16:00 270.7 0.0 0.00 78.8 26.0 73.17 4.6
2018 08 31 17:00 270.4 0.0 0.00 80.2 26.8 72.6 2.7
2018 08 31 18:00 270.9 0.0 0.00 80.3 26.8 73.49 1.0
2018 08 31 19:00 271.9 0.0 0.00 78.8 26.0 78.35 1.4
2018 08 31 20:00 Wet 313.3 0.0 0.00 76.6 24.8 84.9 4.7
2018 08 31 21:00 275.8 0.0 0.00 77.5 25.3 81.3 4.1
2018 08 31 22:00 272.6 0.0 0.00 77.5 25.3 80.2 2.6
2018 08 31 23:00 272.9 0.0 0.00 76.6 24.8 81.5 4.6
2018 08 31 24:00 272.9 0.0 0.00 76.0 24.4 82.9 4.8
2018 09 01 1:00 272.9 0.0 0.00 75.8 24.3 83.8 4.5
2018 09 01 2:00 272.9 0.0 0.00 75.6 24.2 82.5 3.0
2018 09 01 3:00 273.4 0.0 0.00 74.5 23.6 84.9 3.0
2018 09 01 4:00 275.2 0.0 0.00 72.9 22.7 89.5 2.2
2018 09 01 5:00 277.7 0.0 0.00 71.9 22.2 92.4 2.6
2018 09 01 6:00 276.8 0.0 0.00 71.8 22.1 92.7 2.4
2018 09 01 7:00 274.8 0.0 0.00 72.0 22.2 92.3 2.4
2018 09 01 8:00 272.7 0.0 0.00 73.6 23.1 88.6 3.0
2018 09 01 9:00 271.5 0.0 0.00 76.3 24.6 81.4 6.1
2018 09 01 10:00 270.7 0.0 0.00 78.2 25.6 77.65 5.0
2018 09 01 11:00 269.9 0.0 0.00 80.4 26.9 72.53 5.7
2018 09 01 12:00 269.1 0.0 0.00 83.6 28.7 65.64 6.9
2018 09 01 13:00 268.7 0.0 0.00 86.4 30.2 58.43 8.6
2018 09 01 14:00 268.6 0.0 0.00 87.4 30.8 57.57 8.2
2018 09 01 15:00 268.8 0.0 0.00 88.0 31.1 56.31 8.1
2018 09 01 16:00 268.7 0.0 0.00 87.9 31.1 54.17 8.5
2018 09 01 17:00 268.8 0.0 0.00 87.0 30.6 55.89 8.2
2018 09 01 18:00 268.8 0.0 0.00 85.6 29.8 58.41 7.8
2018 09 01 19:00 269.3 0.0 0.00 82.8 28.2 62.65 5.9
2018 09 01 20:00 269.8 0.0 0.00 80.5 27.0 66.46 5.6
2018 09 01 21:00 270.2 0.0 0.00 78.6 25.9 70.61 4.2
2018 09 01 22:00 270.8 0.0 0.00 77.6 25.4 73.03 5.3
2018 09 01 23:00 270.8 0.0 0.00 77.0 25.0 74.62 4.1
2018 09 01 24:00 272.0 0.0 0.00 75.8 24.3 77.42 0.4
2018 09 02 1:00 273.1 0.0 0.00 73.9 23.3 82.5 0.6
2018 09 02 2:00 282.2 0.0 0.00 71.2 21.8 90.9 0.2
2018 09 02 3:00 Wet 302.5 0.0 0.00 71.1 21.7 90.9 0.0
2018 09 02 4:00 Wet 299.9 0.0 0.00 70.7 21.5 92.1 1.5
2018 09 02 5:00 Wet 320.4 0.0 0.00 69.8 21.0 93.8 0.4
2018 09 02 6:00 Wet 347.0 0.0 0.00 69.5 20.9 95.6 0.5
2018 09 02 7:00 Wet 291.7 0.0 0.00 71.2 21.8 93.6 1.8
2018 09 02 8:00 270.9 0.0 0.00 75.1 23.9 84.3 4.1
2018 09 02 9:00 270.6 0.0 0.00 77.1 25.1 77.73 5.0
2018 09 02 10:00 270.1 0.0 0.00 78.5 25.9 73.55 5.5
2018 09 02 11:00 268.6 0.0 0.00 82.2 27.9 63.45 7.6
2018 09 02 12:00 268.2 0.0 0.00 84.3 29.1 57.97 9.9
2018 09 02 13:00 268.1 0.0 0.00 85.5 29.7 56.61 9.3
2018 09 02 14:00 268.1 0.0 0.00 85.9 29.9 52.94 11.7
2018 09 02 15:00 268.1 0.0 0.00 86.1 30.1 52.91 9.5
2018 09 02 16:00 268.1 0.0 0.00 86.3 30.1 52 9.7
2018 09 02 17:00 268.1 0.0 0.00 86.4 30.2 51.51 9.5
2018 09 02 18:00 268.1 0.0 0.00 85.2 29.5 54.43 6.3
2018 09 02 19:00 268.9 0.0 0.00 82.7 28.2 58.92 3.3
2018 09 02 20:00 269.7 0.0 0.00 80.0 26.7 64.95 0.8
2018 09 02 21:00 270.4 0.0 0.00 78.2 25.6 70.14 0.4
2018 09 02 22:00 271.9 0.0 0.00 76.0 24.4 77.56 0.2
2018 09 02 23:00 273.3 0.0 0.00 74.4 23.5 82.6 0.1
2018 09 02 24:00 273.0 0.0 0.00 74.4 23.5 82.5 0.7
2018 09 03 1:00 273.6 0.0 0.00 74.3 23.5 83 0.3
2018 09 03 2:00 275.2 0.0 0.00 72.6 22.6 88.1 0.7
2018 09 03 3:00 283.7 0.0 0.00 70.7 21.5 93 0.0
2018 09 03 4:00 Wet 317.9 0.0 0.00 70.6 21.4 94.6 0.2
2018 09 03 5:00 Wet 351.2 0.0 0.00 70.5 21.4 94.8 0.2
2018 09 03 6:00 Wet 373.3 0.0 0.00 69.4 20.8 96.4 0.0
2018 09 03 7:00 Wet 322.7 0.0 0.00 71.2 21.8 95 1.0
2018 09 03 8:00 273.0 0.0 0.00 75.3 24.0 86 2.3
2018 09 03 9:00 269.5 0.0 0.00 80.2 26.8 74.08 4.7
2018 09 03 10:00 268.7 0.0 0.00 82.9 28.3 66.1 7.1
2018 09 03 11:00 268.2 0.0 0.00 84.7 29.3 62.04 7.2
2018 09 03 12:00 267.9 0.0 0.00 86.0 30.0 57.9 8.4
2018 09 03 13:00 267.7 0.0 0.00 87.3 30.8 54.48 8.7
2018 09 03 14:00 267.6 0.0 0.00 87.9 31.1 51.17 8.3
2018 09 03 15:00 267.7 0.0 0.00 88.6 31.4 51.51 8.0
2018 09 03 16:00 268.0 0.0 0.00 88.1 31.2 50.79 8.5
2018 09 03 17:00 268.1 0.0 0.00 87.0 30.6 52.96 5.4
2018 09 03 18:00 268.1 0.0 0.00 86.7 30.4 52.93 4.4
2018 09 03 19:00 268.6 0.0 0.00 83.9 28.8 57.85 2.6
2018 09 03 20:00 269.4 0.0 0.00 81.4 27.5 62.98 1.3
2018 09 03 21:00 270.3 0.0 0.00 79.1 26.2 68.94 0.2
2018 09 03 22:00 271.6 0.0 0.00 76.7 24.8 75.94 0.0
2018 09 03 23:00 273.2 0.0 0.00 74.9 23.8 82 0.0
2018 09 03 24:00 273.5 0.0 0.00 74.5 23.6 82.5 0.7
2018 09 04 1:00 273.9 0.0 0.00 73.8 23.2 83.9 0.2
2018 09 04 2:00 276.5 0.0 0.00 71.9 22.2 89.3 0.0
2018 09 04 3:00 Wet 309.5 0.0 0.00 70.7 21.5 93.2 0.0
2018 09 04 4:00 Wet 347.0 0.0 0.00 69.4 20.8 95.7 0.0
2018 09 04 5:00 Wet 377.8 0.0 0.00 69.0 20.6 96.5 0.0
2018 09 04 6:00 Wet 385.2 0.0 0.00 68.7 20.4 97.2 0.0
2018 09 04 7:00 Wet 341.3 0.0 0.00 70.5 21.4 95.5 0.7
2018 09 04 8:00 Wet 296.9 0.0 0.00 75.2 24.0 85.4 3.1
2018 09 04 9:00 269.3 0.0 0.00 80.2 26.8 70.92 5.0
2018 09 04 10:00 268.3 0.0 0.00 83.3 28.5 63.03 6.2
2018 09 04 11:00 268.0 0.0 0.00 84.9 29.4 58.83 7.8
2018 09 04 12:00 267.7 0.0 0.00 86.2 30.1 55.21 8.1
2018 09 04 13:00 267.4 0.0 0.00 87.5 30.8 52.94 7.5
2018 09 04 14:00 267.3 0.0 0.00 88.5 31.4 48.48 8.5
2018 09 04 15:00 267.4 0.0 0.00 88.4 31.4 47.74 8.7
2018 09 04 16:00 267.4 0.0 0.00 88.4 31.3 48.79 8.7
2018 09 04 17:00 267.4 0.0 0.00 87.9 31.1 49.19 7.5
2018 09 04 18:00 267.5 0.0 0.00 86.5 30.3 51.95 5.9
2018 09 04 19:00 268.5 0.0 0.00 83.8 28.8 57.04 3.1
2018 09 04 20:00 269.3 0.0 0.00 81.0 27.2 63.07 1.3
2018 09 04 21:00 269.8 0.0 0.00 79.1 26.2 67.47 1.5
2018 09 04 22:00 270.2 0.0 0.00 77.8 25.5 71.66 2.3
2018 09 04 23:00 271.1 0.0 0.00 76.5 24.7 75.52 2.6
2018 09 04 24:00 271.8 0.0 0.00 75.1 23.9 78.74 1.9
2018 09 05 1:00 272.8 0.0 0.00 74.3 23.5 80.5 0.2
2018 09 05 2:00 273.6 0.0 0.00 72.7 22.6 84.5 0.7
2018 09 05 3:00 281.2 0.0 0.00 70.2 21.2 91.4 0.6
2018 09 05 4:00 Wet 329.5 0.0 0.00 68.9 20.5 94.5 0.5
2018 09 05 5:00 Wet 365.6 0.0 0.00 68.1 20.0 96.1 1.3
2018 09 05 6:00 Wet 379.3 0.0 0.00 67.6 19.8 96.2 0.1
2018 09 05 7:00 Wet 338.0 0.0 0.00 69.8 21.0 94.4 0.2
2018 09 05 8:00 Wet 287.6 0.0 0.00 75.2 24.0 82.1 1.8
2018 09 05 9:00 268.8 0.0 0.00 80.2 26.8 70.64 4.2
2018 09 05 10:00 267.9 0.0 0.00 83.8 28.8 61.06 5.8
2018 09 05 11:00 267.3 0.0 0.00 85.8 29.9 55.55 6.9
2018 09 05 12:00 267.0 0.0 0.00 87.2 30.6 52.77 6.5
2018 09 05 13:00 266.9 0.0 0.00 88.1 31.2 49.32 6.9
2018 09 05 14:00 267.0 0.0 0.00 88.5 31.4 48.9 6.5
2018 09 05 15:00 267.0 0.0 0.00 89.2 31.8 46.2 5.7
2018 09 05 16:00 266.9 0.0 0.00 89.5 31.9 44.94 6.0
2018 09 05 17:00 267.3 0.0 0.00 88.1 31.2 48.09 4.7
2018 09 05 18:00 267.8 0.0 0.00 85.9 29.9 52.63 1.9
2018 09 05 19:00 268.5 0.0 0.00 83.4 28.5 57.58 1.8
2018 09 05 20:00 269.4 0.0 0.00 81.2 27.3 62.83 0.2
2018 09 05 21:00 269.9 0.0 0.00 78.1 25.6 73.3 5.9
2018 09 05 22:00 271.4 0.0 0.00 75.4 24.1 81.3 3.6
2018 09 05 23:00 272.3 0.0 0.00 74.0 23.4 84 2.2
2018 09 05 24:00 272.4 0.0 0.00 73.9 23.3 82.1 2.2
2018 09 06 1:00 272.2 0.0 0.00 73.2 22.9 83.1 1.3
2018 09 06 2:00 272.9 0.0 0.00 72.6 22.6 84.8 0.2
2018 09 06 3:00 273.1 0.0 0.00 72.1 22.3 86.5 0.3
2018 09 06 4:00 273.8 0.0 0.00 71.8 22.1 87.4 0.3
2018 09 06 5:00 273.4 0.0 0.00 71.0 21.7 90.9 0.2
2018 09 06 6:00 273.5 0.0 0.00 70.7 21.5 92.6 0.7
2018 09 06 7:00 273.8 0.0 0.00 71.5 21.9 91.1 1.0
2018 09 06 8:00 271.6 0.0 0.00 73.5 23.1 86.4 2.2
2018 09 06 9:00 270.9 0.0 0.00 75.3 24.1 82.8 2.7
2018 09 06 10:00 269.9 0.0 0.00 77.5 25.3 73.81 2.4
2018 09 06 11:00 268.7 0.0 0.00 79.6 26.4 66.22 1.5
2018 09 06 12:00 268.0 0.0 0.00 81.3 27.4 63.28 1.2
2018 09 06 13:00 268.9 0.0 0.00 80.9 27.1 63.82 1.3
2018 09 06 14:00 268.7 0.0 0.00 81.6 27.5 62.37 3.3
2018 09 06 15:00 269.0 0.0 0.00 81.6 27.6 65.37 4.9
2018 09 06 16:00 268.8 0.0 0.00 81.7 27.6 63.46 4.9
2018 09 06 17:00 270.6 0.0 0.00 81.0 27.2 65.6 3.8
2018 09 06 18:00 270.2 0.0 0.00 79.2 26.2 72.54 7.1
2018 09 06 19:00 270.8 0.0 0.00 77.0 25.0 76.54 6.5
2018 09 06 20:00 271.4 0.0 0.00 76.0 24.5 80.4 4.4
2018 09 06 21:00 272.1 0.0 0.00 75.2 24.0 84.1 4.9
2018 09 06 22:00 272.2 0.0 0.00 74.6 23.7 84.5 4.8
2018 09 06 23:00 272.2 0.0 0.00 73.8 23.3 85.7 5.0
2018 09 06 24:00 272.6 0.0 0.00 73.2 22.9 86.8 4.6
2018 09 07 1:00 273.0 0.0 0.00 72.4 22.4 88.5 4.6
2018 09 07 2:00 273.5 0.0 0.00 71.6 22.0 90 5.1
2018 09 07 3:00 273.5 0.0 0.00 71.0 21.6 91.1 4.8
2018 09 07 4:00 273.6 0.0 0.00 70.8 21.6 91.2 3.3
2018 09 07 5:00 273.6 0.0 0.00 70.8 21.6 91.1 4.3
2018 09 07 6:00 273.8 0.0 0.00 70.5 21.4 91.4 4.6
2018 09 07 7:00 273.5 0.0 0.00 70.8 21.5 90.8 3.7
2018 09 07 8:00 272.7 0.0 0.00 71.5 22.0 89.1 4.2
2018 09 07 9:00 272.1 0.0 0.00 72.9 22.7 85.4 4.0
2018 09 07 10:00 271.1 0.0 0.00 74.7 23.7 80.8 4.9
2018 09 07 11:00 270.8 0.0 0.00 75.6 24.2 78.27 5.4
2018 09 07 12:00 270.8 0.0 0.00 76.1 24.5 77.58 5.2
2018 09 07 13:00 271.5 0.0 0.00 75.5 24.2 79.2 4.8
2018 09 07 14:00 272.8 0.0 0.00 74.8 23.8 81.7 5.5
2018 09 07 15:00 272.5 0.0 0.00 73.7 23.2 83.3 5.6
2018 09 07 16:00 272.2 0.0 0.00 73.4 23.0 83.7 9.0
2018 09 07 17:00 272.2 0.0 0.00 72.1 22.3 84.6 9.7
2018 09 07 18:00 271.8 0.0 0.00 71.6 22.0 78.94 10.4
2018 09 07 19:00 272.3 0.0 0.00 70.6 21.4 83.5 7.8
2018 09 07 20:00 Wet 430.9 0.0 0.25 70.1 21.2 87.3 6.4
2018 09 07 21:00 Wet 542.4 0.1 3.05 68.9 20.5 92.7 4.4
2018 09 07 22:00 Wet 546.9 0.2 3.81 67.7 19.9 94.9 4.9
2018 09 07 23:00 Wet 530.9 0.1 2.03 67.0 19.5 93.9 5.7
2018 09 07 24:00 Wet 506.8 0.0 0.51 67.0 19.4 94.2 5.4
2018 09 08 1:00 Wet 528.4 0.0 1.02 67.3 19.6 94.6 5.9
2018 09 08 2:00 Wet 541.3 0.1 1.78 67.2 19.6 95 6.1
2018 09 08 3:00 Wet 539.8 0.1 1.52 67.0 19.5 94.2 6.7
2018 09 08 4:00 Wet 546.0 0.1 2.29 66.2 19.0 94.7 8.1
2018 09 08 5:00 Wet 538.8 0.0 1.02 65.1 18.4 94.1 8.1
2018 09 08 6:00 Wet 503.5 0.0 0.25 64.6 18.1 94 8.3
2018 09 08 7:00 Wet 483.4 0.0 0.00 64.1 17.8 93.3 8.3
2018 09 08 8:00 Wet 447.6 0.0 0.25 63.3 17.4 94 7.6
2018 09 08 9:00 Wet 529.0 0.0 0.25 63.5 17.5 93.5 9.1
2018 09 08 10:00 Wet 449.7 0.0 0.00 64.0 17.8 92.2 8.7
2018 09 08 11:00 Wet 317.7 0.0 0.00 65.2 18.4 85.9 9.1
2018 09 08 12:00 272.6 0.0 0.00 66.1 18.9 79.61 8.9
2018 09 08 13:00 271.8 0.0 0.00 66.3 19.0 79.87 8.8
2018 09 08 14:00 272.0 0.0 0.00 65.7 18.7 81.9 8.0
2018 09 08 15:00 271.9 0.0 0.00 65.6 18.6 80.1 8.0
2018 09 08 16:00 273.1 0.0 0.00 65.7 18.7 78.6 8.5
2018 09 08 17:00 280.3 0.0 0.00 65.9 18.8 77.83 8.9
2018 09 08 18:00 272.2 0.0 0.00 65.5 18.6 81 5.7
2018 09 08 19:00 272.2 0.0 0.00 65.2 18.4 81.5 5.6
2018 09 08 20:00 272.2 0.0 0.00 64.9 18.3 80.6 6.1
2018 09 08 21:00 272.2 0.0 0.00 64.6 18.1 79.74 6.4
2018 09 08 22:00 272.5 0.0 0.00 63.8 17.7 81.2 8.3
2018 09 08 23:00 272.2 0.0 0.00 63.0 17.2 81.1 8.6
2018 09 08 24:00 271.8 0.0 0.00 62.4 16.9 79.43 7.4
2018 09 09 1:00 282.8 0.0 0.00 62.0 16.7 83 4.4
2018 09 09 2:00 272.6 0.0 0.00 61.7 16.5 83.8 6.8
2018 09 09 3:00 272.2 0.0 0.00 61.1 16.2 80.5 7.0
2018 09 09 4:00 272.2 0.0 0.00 60.8 16.0 80.6 5.4
2018 09 09 5:00 272.3 0.0 0.00 60.6 15.9 82.7 6.0
2018 09 09 6:00 273.1 0.0 0.00 59.8 15.4 87.1 5.5
2018 09 09 7:00 272.3 0.0 0.00 59.8 15.4 83.1 6.1
2018 09 09 8:00 271.6 0.0 0.00 60.4 15.8 78.8 6.8
2018 09 09 9:00 271.2 0.0 0.00 61.5 16.4 76.6 7.1
2018 09 09 10:00 270.7 0.0 0.00 62.8 17.1 74.13 6.6
2018 09 09 11:00 270.1 0.0 0.00 64.4 18.0 70.99 6.4
2018 09 09 12:00 269.4 0.0 0.00 67.6 19.8 65.06 6.0
2018 09 09 13:00 268.9 0.0 0.00 70.9 21.6 58.32 7.7
2018 09 09 14:00 268.5 0.0 0.00 73.6 23.1 51.79 8.5
2018 09 09 15:00 268.1 0.0 0.00 75.2 24.0 46.87 8.2
2018 09 09 16:00 268.1 0.0 0.00 75.8 24.3 43.37 7.4
2018 09 09 17:00 268.1 0.0 0.00 75.3 24.1 44.99 7.4
2018 09 09 18:00 268.1 0.0 0.00 73.9 23.3 48.93 5.7
2018 09 09 19:00 269.0 0.0 0.00 70.2 21.2 57.98 2.3
2018 09 09 20:00 269.5 0.0 0.00 67.6 19.8 64.8 3.1
2018 09 09 21:00 269.9 0.0 0.00 66.0 18.9 68.31 3.4
2018 09 09 22:00 270.1 0.0 0.00 65.2 18.4 70.52 3.0
2018 09 09 23:00 270.2 0.0 0.00 65.1 18.4 69.8 1.0
2018 09 09 24:00 270.3 0.0 0.00 64.7 18.2 71.89 1.5
2018 09 10 1:00 275.2 0.0 0.00 61.8 16.6 82.1 0.9
2018 09 10 2:00 276.9 0.0 0.00 59.7 15.4 85.6 1.2
2018 09 10 3:00 Wet 315.2 0.0 0.00 57.6 14.2 92.8 0.4
2018 09 10 4:00 Wet 358.1 0.0 0.00 57.0 13.9 93.5 1.1
2018 09 10 5:00 Wet 388.5 0.0 0.00 55.8 13.2 95.9 1.0
2018 09 10 6:00 Wet 405.3 0.0 0.00 55.0 12.8 96 0.5
2018 09 10 7:00 Wet 370.5 0.0 0.00 55.6 13.1 96.3 1.4
2018 09 10 8:00 Wet 311.4 0.0 0.00 60.2 15.6 83 0.9
2018 09 10 9:00 268.1 0.0 0.00 64.4 18.0 70.2 0.8
2018 09 10 10:00 267.4 0.0 0.00 68.1 20.1 63.36 2.1
2018 09 10 11:00 267.4 0.0 0.00 71.3 21.9 57.75 3.6
2018 09 10 12:00 267.0 0.0 0.00 74.0 23.3 47.09 5.0
2018 09 10 13:00 266.7 0.0 0.00 75.3 24.1 43.02 4.3
2018 09 10 14:00 266.7 0.0 0.00 75.9 24.4 41.89 4.6
2018 09 10 15:00 266.8 0.0 0.00 76.6 24.8 41.8 3.8
2018 09 10 16:00 266.8 0.0 0.00 77.1 25.1 40.21 2.4
2018 09 10 17:00 266.8 0.0 0.00 77.1 25.1 39.96 2.6
2018 09 10 18:00 266.9 0.0 0.00 76.8 24.9 40.7 1.8
2018 09 10 19:00 268.3 0.0 0.00 72.0 22.2 51.76 0.6
2018 09 10 20:00 271.8 0.0 0.00 65.6 18.7 68.47 0.1
2018 09 10 21:00 280.8 0.0 0.00 61.5 16.4 82.5 0.0
2018 09 10 22:00 Wet 325.7 0.0 0.00 59.8 15.4 89.4 0.3
2018 09 10 23:00 Wet 369.1 0.0 0.00 58.4 14.6 92.7 0.5
2018 09 10 24:00 Wet 394.5 0.0 0.00 56.8 13.8 95.3 0.2
2018 09 11 1:00 Wet 405.1 0.0 0.00 55.8 13.2 95.8 0.0
2018 09 11 2:00 Wet 372.3 0.0 0.00 54.8 12.7 96.4 0.0
2018 09 11 3:00 Wet 370.9 0.0 0.00 54.8 12.7 97 0.2
2018 09 11 4:00 Wet 373.1 0.0 0.00 53.7 12.1 96.9 0.0
2018 09 11 5:00 Wet 375.3 0.0 0.00 53.3 11.8 97.4 0.1
2018 09 11 6:00 Wet 375.1 0.0 0.00 53.0 11.7 97.1 0.2
2018 09 11 7:00 Wet 313.9 0.0 0.00 54.2 12.3 96.9 0.5
2018 09 11 8:00 270.3 0.0 0.00 59.3 15.1 91.1 0.9
2018 09 11 9:00 268.9 0.0 0.00 65.6 18.7 81.6 1.8
2018 09 11 10:00 267.9 0.0 0.00 71.1 21.7 71.29 2.0
2018 09 11 11:00 267.4 0.0 0.00 74.3 23.5 60.9 3.6
2018 09 11 12:00 267.0 0.0 0.00 76.0 24.4 55.29 4.3
2018 09 11 13:00 266.8 0.0 0.00 77.2 25.1 50.93 4.2
2018 09 11 14:00 266.7 0.0 0.00 78.2 25.7 47.75 4.4
2018 09 11 15:00 267.0 0.0 0.00 78.6 25.9 46.03 3.0
2018 09 11 16:00 267.4 0.0 0.00 78.6 25.9 45.57 4.0
2018 09 11 17:00 267.3 0.0 0.00 78.4 25.8 43.63 3.3
2018 09 11 18:00 267.2 0.0 0.00 77.5 25.3 45.69 1.8
2018 09 11 19:00 268.5 0.0 0.00 73.8 23.2 54.87 0.1
2018 09 11 20:00 270.2 0.0 0.00 69.4 20.8 66.77 0.3
2018 09 11 21:00 277.7 0.0 0.00 64.7 18.2 81 0.0
2018 09 11 22:00 Wet 311.4 0.0 0.00 62.4 16.9 88.1 0.1
2018 09 11 23:00 Wet 362.7 0.0 0.00 60.4 15.8 93.4 0.0
2018 09 11 24:00 Wet 398.1 0.0 0.00 59.7 15.4 93.6 0.0
2018 09 12 1:00 Wet 403.6 0.0 0.00 58.0 14.4 96 0.1
2018 09 12 2:00 Wet 406.3 0.0 0.00 57.1 13.9 96.7 0.0
2018 09 12 3:00 Wet 366.3 0.0 0.00 56.3 13.5 97.2 0.0
2018 09 12 4:00 Wet 366.4 0.0 0.00 55.7 13.2 97.6 0.0
2018 09 12 5:00 Wet 364.4 0.0 0.00 55.6 13.1 98 0.1
2018 09 12 6:00 Wet 358.8 0.0 0.00 55.5 13.1 98 0.0
2018 09 12 7:00 Wet 320.2 0.0 0.00 55.7 13.2 98.4 0.0
2018 09 12 8:00 270.8 0.0 0.00 60.9 16.1 96.9 1.3
2018 09 12 9:00 269.2 0.0 0.00 66.4 19.1 83.4 1.6
2018 09 12 10:00 267.4 0.0 0.00 72.4 22.4 66.44 1.3
2018 09 12 11:00 267.5 0.0 0.00 74.2 23.5 61.41 3.8
2018 09 12 12:00 267.6 0.0 0.00 75.4 24.1 55.71 5.4
2018 09 12 13:00 267.2 0.0 0.00 76.5 24.7 51.59 4.7
2018 09 12 14:00 267.0 0.0 0.00 78.0 25.6 49.45 5.0
2018 09 12 15:00 267.4 0.0 0.00 78.2 25.6 49.31 5.3
2018 09 12 16:00 267.4 0.0 0.00 78.4 25.8 47.91 4.1
2018 09 12 17:00 267.4 0.0 0.00 78.0 25.6 48.88 4.4
2018 09 12 18:00 267.7 0.0 0.00 76.6 24.8 52.05 2.5
2018 09 12 19:00 268.7 0.0 0.00 73.8 23.2 58.46 0.3
2018 09 12 20:00 270.0 0.0 0.00 70.5 21.4 66.96 0.3
2018 09 12 21:00 276.0 0.0 0.00 65.5 18.6 82.4 0.0
2018 09 12 22:00 Wet 296.6 0.0 0.00 63.6 17.6 88.6 0.0
2018 09 12 23:00 282.3 0.0 0.00 65.0 18.3 81.5 0.1
2018 09 12 24:00 Wet 286.2 0.0 0.00 62.2 16.8 89.8 0.0
2018 09 13 1:00 Wet 316.8 0.0 0.00 61.4 16.4 92.1 0.1
2018 09 13 2:00 Wet 342.0 0.0 0.00 61.2 16.2 92.9 0.3
2018 09 13 3:00 Wet 368.0 0.0 0.00 59.4 15.2 95.3 0.0
2018 09 13 4:00 Wet 386.7 0.0 0.00 59.3 15.1 96.6 0.0
2018 09 13 5:00 Wet 396.6 0.0 0.00 58.5 14.7 97.3 0.0
2018 09 13 6:00 Wet 386.6 0.0 0.00 58.2 14.6 97.7 0.1
2018 09 13 7:00 Wet 310.2 0.0 0.00 59.4 15.2 97.7 0.0
2018 09 13 8:00 270.5 0.0 0.00 64.7 18.2 88.8 1.2
2018 09 13 9:00 268.3 0.0 0.00 70.1 21.1 76.29 0.6
2018 09 13 10:00 267.6 0.0 0.00 73.2 22.9 67.17 3.0
2018 09 13 11:00 267.3 0.0 0.00 75.7 24.3 60.97 3.2
2018 09 13 12:00 267.3 0.0 0.00 77.5 25.3 56.97 4.0
2018 09 13 13:00 267.2 0.0 0.00 79.4 26.3 54.12 4.2
2018 09 13 14:00 267.4 0.0 0.00 80.7 27.1 52.15 4.4
2018 09 13 15:00 267.4 0.0 0.00 82.0 27.8 50.22 4.8
2018 09 13 16:00 267.5 0.0 0.00 82.4 28.0 49.82 4.2
2018 09 13 17:00 267.8 0.0 0.00 82.1 27.9 51.06 3.6
2018 09 13 18:00 268.3 0.0 0.00 80.2 26.8 55.16 1.0
2018 09 13 19:00 269.1 0.0 0.00 77.9 25.5 60.15 0.0
2018 09 13 20:00 271.2 0.0 0.00 72.8 22.7 75.12 0.0
2018 09 13 21:00 273.5 0.0 0.00 70.9 21.6 80.4 0.1
2018 09 13 22:00 279.7 0.0 0.00 68.3 20.2 88.4 0.0
2018 09 13 23:00 Wet 312.6 0.0 0.00 66.8 19.3 92.1 0.0
2018 09 13 24:00 Wet 346.1 0.0 0.00 65.7 18.7 95.1 0.1
2018 09 14 1:00 Wet 363.6 0.0 0.00 65.2 18.5 94 0.2
2018 09 14 2:00 Wet 376.4 0.0 0.00 64.0 17.8 96.8 0.0
2018 09 14 3:00 Wet 382.1 0.0 0.00 63.7 17.6 96.6 0.1
2018 09 14 4:00 Wet 353.9 0.0 0.00 62.7 17.1 96.9 0.0
2018 09 14 5:00 Wet 351.1 0.0 0.00 62.5 16.9 97.2 0.5
2018 09 14 6:00 Wet 355.9 0.0 0.00 61.8 16.6 97.5 0.0
2018 09 14 7:00 Wet 313.8 0.0 0.00 62.6 17.0 97.9 0.0
2018 09 14 8:00 272.0 0.0 0.00 68.2 20.1 90.6 0.3
2018 09 14 9:00 268.1 0.0 0.00 75.1 23.9 72.96 0.8
2018 09 14 10:00 267.3 0.0 0.00 80.2 26.8 63.52 1.8
2018 09 14 11:00 267.0 0.0 0.00 83.0 28.3 55.72 2.8
2018 09 14 12:00 266.8 0.0 0.00 83.5 28.6 53.25 2.3
2018 09 14 13:00 266.6 0.0 0.00 84.9 29.4 49.11 3.6
2018 09 14 14:00 266.5 0.0 0.00 86.5 30.3 47.18 3.0
2018 09 14 15:00 266.6 0.0 0.00 87.0 30.6 45.46 3.3
2018 09 14 16:00 267.0 0.0 0.00 87.6 30.9 44.52 3.2
2018 09 14 17:00 267.0 0.0 0.00 86.8 30.4 45.03 3.6
2018 09 14 18:00 267.4 0.0 0.00 84.8 29.3 47.11 2.9
2018 09 14 19:00 268.1 0.0 0.00 81.3 27.4 53.06 0.2
2018 09 14 20:00 269.8 0.0 0.00 75.5 24.2 68.26 0.0
2018 09 14 21:00 271.5 0.0 0.00 73.3 22.9 76.04 0.6
2018 09 14 22:00 274.2 0.0 0.00 70.9 21.6 83.7 0.3
2018 09 14 23:00 283.7 0.0 0.00 69.0 20.6 89.6 0.3
2018 09 14 24:00 283.2 0.0 0.00 68.7 20.4 88.7 0.8
2018 09 15 1:00 Wet 305.7 0.0 0.00 67.3 19.6 91.8 0.3
2018 09 15 2:00 Wet 334.0 0.0 0.00 66.2 19.0 93.5 0.4
2018 09 15 3:00 Wet 358.3 0.0 0.00 65.1 18.4 95.7 0.6
2018 09 15 4:00 Wet 371.3 0.0 0.00 64.6 18.1 95.1 0.1
2018 09 15 5:00 Wet 384.3 0.0 0.00 64.3 18.0 95.6 0.4
2018 09 15 6:00 Wet 397.0 0.0 0.00 63.5 17.5 96 0.2
2018 09 15 7:00 Wet 368.0 0.0 0.00 63.6 17.6 96.9 0.1
2018 09 15 8:00 Wet 307.8 0.0 0.00 68.7 20.4 88.4 0.6
2018 09 15 9:00 268.7 0.0 0.00 75.0 23.9 71.25 1.2
2018 09 15 10:00 267.6 0.0 0.00 79.3 26.3 63.96 2.2
2018 09 15 11:00 267.0 0.0 0.00 83.1 28.4 56.72 2.8
2018 09 15 12:00 266.7 0.0 0.00 85.6 29.8 49.66 4.2
2018 09 15 13:00 266.4 0.0 0.00 86.8 30.5 43.76 5.1
2018 09 15 14:00 266.1 0.0 0.00 87.7 30.9 40.34 4.7
2018 09 15 15:00 266.2 0.0 0.00 87.8 31.0 39.41 5.8
2018 09 15 16:00 266.2 0.0 0.00 88.3 31.3 38.03 5.0
2018 09 15 17:00 266.3 0.0 0.00 87.5 30.8 39.08 4.6
2018 09 15 18:00 266.6 0.0 0.00 86.5 30.3 40.66 2.5
2018 09 15 19:00 267.6 0.0 0.00 82.7 28.2 49.41 0.4
2018 09 15 20:00 269.3 0.0 0.00 76.4 24.7 62.8 0.0
2018 09 15 21:00 271.1 0.0 0.00 72.8 22.7 72.87 0.6
2018 09 15 22:00 273.1 0.0 0.00 70.7 21.5 78.68 0.5
2018 09 15 23:00 275.4 0.0 0.00 69.3 20.7 81 0.0
2018 09 15 24:00 Wet 301.6 0.0 0.00 66.9 19.4 89.8 0.1
2018 09 16 1:00 Wet 301.9 0.0 0.00 67.6 19.8 83.6 1.9
2018 09 16 2:00 Wet 299.2 0.0 0.00 64.8 18.2 90.1 0.4
2018 09 16 3:00 Wet 338.8 0.0 0.00 64.0 17.8 91.4 0.4
2018 09 16 4:00 Wet 358.8 0.0 0.00 63.6 17.6 90.4 0.0
2018 09 16 5:00 Wet 371.4 0.0 0.00 62.2 16.8 93.1 0.8
2018 09 16 6:00 Wet 376.8 0.0 0.00 61.9 16.6 92.4 0.7
2018 09 16 7:00 Wet 345.7 0.0 0.00 62.7 17.0 91.4 0.1
2018 09 16 8:00 Wet 300.4 0.0 0.00 67.5 19.7 81.8 0.4
2018 09 16 9:00 268.3 0.0 0.00 73.3 23.0 70.57 1.9
2018 09 16 10:00 267.7 0.0 0.00 77.6 25.3 66.06 1.9
2018 09 16 11:00 266.9 0.0 0.00 83.2 28.4 58.72 1.5
2018 09 16 12:00 266.9 0.0 0.00 85.2 29.6 55.7 2.9
2018 09 16 13:00 267.0 0.0 0.00 86.1 30.1 53.36 4.3
2018 09 16 14:00 267.1 0.0 0.00 87.0 30.5 49.86 4.1
2018 09 16 15:00 267.3 0.0 0.00 87.0 30.6 47.89 4.0
2018 09 16 16:00 267.1 0.0 0.00 88.8 31.6 44.06 4.0
2018 09 16 17:00 266.8 0.0 0.00 88.0 31.1 44.38 3.1
2018 09 16 18:00 267.3 0.0 0.00 86.7 30.4 47.29 0.8
2018 09 16 19:00 268.8 0.0 0.00 81.9 27.7 58.18 0.1
2018 09 16 20:00 270.5 0.0 0.00 77.0 25.0 70.05 0.1
2018 09 16 21:00 272.7 0.0 0.00 73.7 23.2 79.67 0.1
2018 09 16 22:00 274.3 0.0 0.00 72.2 22.3 84.4 0.0
2018 09 16 23:00 278.0 0.0 0.00 69.8 21.0 90.4 0.6
2018 09 16 24:00 Wet 301.5 0.0 0.00 68.7 20.4 93.2 0.6
2018 09 17 1:00 Wet 308.9 0.0 0.00 69.0 20.5 91.9 1.1
2018 09 17 2:00 Wet 325.4 0.0 0.00 67.9 20.0 93.4 0.7
2018 09 17 3:00 Wet 343.6 0.0 0.00 67.1 19.5 93.5 0.1
2018 09 17 4:00 Wet 367.3 0.0 0.00 66.1 18.9 95.8 0.1
2018 09 17 5:00 Wet 381.1 0.0 0.00 65.4 18.6 96.7 0.2
2018 09 17 6:00 Wet 389.1 0.0 0.00 64.6 18.1 97.4 0.4
2018 09 17 7:00 Wet 356.7 0.0 0.00 66.0 18.9 96.7 0.9
2018 09 17 8:00 Wet 307.9 0.0 0.00 71.1 21.7 87.2 0.2
2018 09 17 9:00 268.4 0.0 0.00 78.1 25.6 71.8 1.6
2018 09 17 10:00 266.9 0.0 0.00 84.0 28.9 56.53 1.6
2018 09 17 11:00 265.9 0.0 0.00 86.2 30.1 49.38 2.3
2018 09 17 12:00 265.5 0.0 0.00 88.3 31.3 45.54 2.8
2018 09 17 13:00 265.5 0.0 0.00 89.4 31.9 42.58 3.1
2018 09 17 14:00 265.8 0.0 0.00 89.1 31.7 42.64 4.2
2018 09 17 15:00 266.0 0.0 0.00 90.0 32.2 40.71 4.1
2018 09 17 16:00 266.0 0.0 0.00 89.7 32.0 40.14 3.2
2018 09 17 17:00 266.1 0.0 0.00 90.1 32.3 38.88 5.2
2018 09 17 18:00 266.4 0.0 0.00 87.6 30.9 43.6 4.5
2018 09 17 19:00 267.2 0.0 0.00 83.9 28.8 50.68 4.6
2018 09 17 20:00 267.9 0.0 0.00 81.2 27.3 57.15 2.9
2018 09 17 21:00 268.8 0.0 0.00 78.8 26.0 62.61 1.6
2018 09 17 22:00 270.4 0.0 0.00 75.6 24.2 71.78 0.2
2018 09 17 23:00 272.6 0.0 0.00 72.5 22.5 79.58 0.0
2018 09 17 24:00 273.6 0.0 0.00 71.7 22.0 82.8 0.5
2018 09 18 1:00 274.0 0.0 0.00 70.3 21.3 86.7 0.2
2018 09 18 2:00 282.5 0.0 0.00 68.5 20.3 92.2 0.0
2018 09 18 3:00 Wet 289.1 0.0 0.00 69.0 20.5 90.5 0.4
2018 09 18 4:00 Wet 305.3 0.0 0.00 68.0 20.0 93.1 0.1
2018 09 18 5:00 Wet 329.0 0.0 0.00 68.0 20.0 92.7 0.1
2018 09 18 6:00 Wet 342.2 0.0 0.00 67.4 19.6 93.8 0.7
2018 09 18 7:00 Wet 321.4 0.0 0.00 66.9 19.4 95.5 0.6
2018 09 18 8:00 270.4 0.0 0.00 72.4 22.4 85.2 0.3
2018 09 18 9:00 267.9 0.0 0.00 79.3 26.3 70.34 2.2
2018 09 18 10:00 267.1 0.0 0.00 84.4 29.1 55.99 4.6
2018 09 18 11:00 266.2 0.0 0.00 87.3 30.7 46.94 4.4
2018 09 18 12:00 265.5 0.0 0.00 88.9 31.6 41.23 4.8
2018 09 18 13:00 265.5 0.0 0.00 89.9 32.1 39.26 4.2
2018 09 18 14:00 265.3 0.0 0.00 91.5 33.1 37.23 4.6
2018 09 18 15:00 265.4 0.0 0.00 91.7 33.1 36.69 4.1
2018 09 18 16:00 265.4 0.0 0.00 92.0 33.3 36.12 2.8
2018 09 18 17:00 265.8 0.0 0.00 90.6 32.6 38.1 2.9
2018 09 18 18:00 266.4 0.0 0.00 87.8 31.0 44.15 2.1
2018 09 18 19:00 267.6 0.0 0.00 83.8 28.8 54.96 5.6
2018 09 18 20:00 Wet 344.7 0.0 0.00 75.3 24.0 82.4 7.1
2018 09 18 21:00 283.5 0.0 0.00 73.2 22.9 88.8 3.3
2018 09 18 22:00 276.7 0.0 0.00 72.5 22.5 89.8 1.7
2018 09 18 23:00 Wet 311.6 0.0 0.00 70.8 21.6 95 1.2
2018 09 18 24:00 Wet 355.7 0.0 0.00 70.6 21.4 96.1 0.6
2018 09 19 1:00 Wet 371.0 0.0 0.00 69.6 20.9 96.5 0.4
2018 09 19 2:00 Wet 375.2 0.0 0.00 69.3 20.7 97.2 0.0
2018 09 19 3:00 Wet 365.0 0.0 0.00 70.0 21.1 96.5 0.7
2018 09 19 4:00 Wet 368.5 0.0 0.00 69.5 20.8 95.9 0.1
2018 09 19 5:00 Wet 382.3 0.0 0.00 69.4 20.8 96.7 0.2
2018 09 19 6:00 Wet 384.3 0.0 0.00 69.0 20.6 96.4 0.9
2018 09 19 7:00 Wet 362.1 0.0 0.00 69.5 20.8 96.1 0.7
2018 09 19 8:00 Wet 315.3 0.0 0.00 72.9 22.7 88.4 1.1
2018 09 19 9:00 269.7 0.0 0.00 76.9 25.0 79.45 2.7
2018 09 19 10:00 268.5 0.0 0.00 80.9 27.1 71.2 2.8
2018 09 19 11:00 267.6 0.0 0.00 85.6 29.8 61.27 3.1
2018 09 19 12:00 267.0 0.0 0.00 88.3 31.3 54.53 3.4
2018 09 19 13:00 266.9 0.0 0.00 89.7 32.0 51.57 3.8
2018 09 19 14:00 Wet 339.9 0.0 0.51 85.1 29.5 61.93 8.0
2018 09 19 15:00 Wet 393.5 0.1 3.56 78.0 25.5 81 7.1
2018 09 19 16:00 270.2 0.0 0.00 81.7 27.6 68.27 4.0
2018 09 19 17:00 269.8 0.0 0.00 82.3 27.9 67.61 4.6
2018 09 19 18:00 270.0 0.0 0.00 81.5 27.5 67.31 3.3
2018 09 19 19:00 270.8 0.0 0.00 79.2 26.2 72.48 1.2
2018 09 19 20:00 272.1 0.0 0.00 77.2 25.1 78.4 0.2
2018 09 19 21:00 274.5 0.0 0.00 75.5 24.2 84 0.3
2018 09 19 22:00 275.2 0.0 0.00 74.6 23.7 87.5 0.6
2018 09 19 23:00 275.3 0.0 0.00 74.6 23.6 86.9 0.9
2018 09 19 24:00 Wet 290.7 0.0 0.00 72.6 22.5 91.9 1.1
2018 09 20 1:00 Wet 337.5 0.0 0.00 71.2 21.8 94.8 0.5
2018 09 20 2:00 Wet 365.2 0.0 0.00 71.7 22.1 93.7 0.4
2018 09 20 3:00 Wet 374.7 0.0 0.00 71.0 21.7 94.4 0.3
2018 09 20 4:00 Wet 388.4 0.0 0.00 70.3 21.3 96.4 1.9
2018 09 20 5:00 Wet 395.5 0.0 0.00 70.3 21.3 96.9 2.0
2018 09 20 6:00 Wet 396.5 0.0 0.00 70.3 21.3 96.4 2.6
2018 09 20 7:00 Wet 362.3 0.0 0.00 71.4 21.9 93.9 2.3
2018 09 20 8:00 Wet 317.6 0.0 0.00 75.3 24.1 84.9 3.0
2018 09 20 9:00 269.8 0.0 0.00 81.3 27.4 67.64 7.0
2018 09 20 10:00 268.5 0.0 0.00 85.0 29.4 59.33 7.7
2018 09 20 11:00 267.9 0.0 0.00 87.5 30.8 55.99 8.0
2018 09 20 12:00 267.4 0.0 0.00 89.8 32.1 51.34 7.3
2018 09 20 13:00 267.3 0.0 0.00 90.6 32.6 48.65 8.0
2018 09 20 14:00 266.9 0.0 0.00 91.7 33.1 45.73 10.2
2018 09 20 15:00 266.8 0.0 0.00 91.8 33.2 44 11.1
2018 09 20 16:00 266.9 0.0 0.00 91.4 33.0 44.71 9.8
2018 09 20 17:00 266.8 0.0 0.00 90.5 32.5 44.87 9.1
2018 09 20 18:00 267.4 0.0 0.00 87.9 31.1 48.71 7.6
2018 09 20 19:00 267.9 0.0 0.00 85.1 29.5 53.61 5.4
2018 09 20 20:00 268.3 0.0 0.00 82.8 28.2 58.19 5.0
2018 09 20 21:00 268.1 0.0 0.00 81.9 27.7 56.17 5.1
2018 09 20 22:00 268.1 0.0 0.00 80.6 27.0 56.84 5.5
2018 09 20 23:00 268.7 0.0 0.00 79.4 26.4 58.98 5.1
2018 09 20 24:00 268.8 0.0 0.00 78.3 25.7 60.68 4.9
2018 09 21 1:00 268.8 0.0 0.00 78.5 25.8 60.09 6.7
2018 09 21 2:00 268.8 0.0 0.00 78.1 25.6 61.68 7.3
2018 09 21 3:00 268.8 0.0 0.00 77.1 25.1 64.74 6.9
2018 09 21 4:00 269.4 0.0 0.00 76.8 24.9 67.01 6.4
2018 09 21 5:00 269.7 0.0 0.00 78.0 25.6 67.14 7.3
2018 09 21 6:00 269.9 0.0 0.00 76.6 24.8 71.48 4.2
2018 09 21 7:00 269.5 0.0 0.00 75.0 23.9 68.37 7.5
2018 09 21 8:00 269.5 0.0 0.00 73.8 23.2 69.99 7.1
2018 09 21 9:00 268.9 0.0 0.00 74.2 23.4 69.09 9.6
2018 09 21 10:00 268.8 0.0 0.00 74.3 23.5 69.42 9.5
2018 09 21 11:00 268.0 0.0 0.00 76.2 24.6 62.7 9.2
2018 09 21 12:00 267.2 0.0 0.00 78.4 25.8 50.63 7.6
2018 09 21 13:00 266.4 0.0 0.00 79.9 26.6 42.82 7.3
2018 09 21 14:00 266.1 0.0 0.00 78.5 25.8 38.15 9.4
2018 09 21 15:00 266.0 0.0 0.00 77.4 25.2 36.59 10.0
2018 09 21 16:00 266.1 0.0 0.00 74.0 23.3 40.84 9.3
2018 09 21 17:00 266.9 0.0 0.00 70.2 21.2 49.48 9.3
2018 09 21 18:00 267.4 0.0 0.00 68.3 20.2 56 6.4
2018 09 21 19:00 267.8 0.0 0.00 66.7 19.3 57.88 6.4
2018 09 21 20:00 268.1 0.0 0.00 65.4 18.5 59.21 4.5
2018 09 21 21:00 268.2 0.0 0.00 64.1 17.8 62.32 2.8
2018 09 21 22:00 268.8 0.0 0.00 62.9 17.2 65.3 3.8
2018 09 21 23:00 268.8 0.0 0.00 62.4 16.9 63.53 4.5
2018 09 21 24:00 268.2 0.0 0.00 62.1 16.7 61.02 5.9
2018 09 22 1:00 268.2 0.0 0.00 60.7 15.9 62.03 6.2
2018 09 22 2:00 268.6 0.0 0.00 58.9 15.0 63.77 5.3
2018 09 22 3:00 268.8 0.0 0.00 57.9 14.4 66.31 4.2
2018 09 22 4:00 268.8 0.0 0.00 57.1 13.9 68.67 4.4
2018 09 22 5:00 268.8 0.0 0.00 56.5 13.6 70.19 4.1
2018 09 22 6:00 269.4 0.0 0.00 55.8 13.2 72.43 4.1
2018 09 22 7:00 269.5 0.0 0.00 55.4 13.0 73.55 3.7
2018 09 22 8:00 269.0 0.0 0.00 56.0 13.4 71.96 4.6
2018 09 22 9:00 268.5 0.0 0.00 57.6 14.2 68.64 5.4
2018 09 22 10:00 267.9 0.0 0.00 59.4 15.2 65.34 5.4
2018 09 22 11:00 267.0 0.0 0.00 62.2 16.8 60.46 5.5
2018 09 22 12:00 266.7 0.0 0.00 64.6 18.1 56.41 5.2
2018 09 22 13:00 266.6 0.0 0.00 67.7 19.9 51.64 5.0
2018 09 22 14:00 266.7 0.0 0.00 69.4 20.8 48.77 4.8
2018 09 22 15:00 266.8 0.0 0.00 70.3 21.3 47.44 5.1
2018 09 22 16:00 266.8 0.0 0.00 71.1 21.7 46.34 4.4
2018 09 22 17:00 266.8 0.0 0.00 70.9 21.6 46.43 4.1
2018 09 22 18:00 267.1 0.0 0.00 69.3 20.7 48.31 2.8
2018 09 22 19:00 268.1 0.0 0.00 66.1 18.9 54.97 0.4
2018 09 22 20:00 270.1 0.0 0.00 61.0 16.1 69.06 0.1
2018 09 22 21:00 274.3 0.0 0.00 58.6 14.8 76.28 0.0
CST mV in mm F C % mph
Year Month Day Hour Leaf Wetness Total
Precipitation
Avg. Temp Avg. Rel.
Humidity
Wind
Speed

Back to the top of the page